<?xml version="1.0" encoding="UTF-8" standalone="no" ?>
<gpx xmlns="http://www.topografix.com/GPX/1/1" xmlns:xsi="http://www.w3.org/2001/XMLSchema-instance" xsi:schemaLocation="http://www.topografix.com/GPX/1/1 http://www.topografix.com/GPX/1/1/gpx.xsd" version="1.1" creator="VisuGPX - https://www.visugpx.com">
  <metadata>
    <name>21-MARS-14 17:37:34</name>
  </metadata>
  <trk>
    <name><![CDATA[21-MARS-14 17:37:34]]></name>
    <trkseg>
      <trkpt lat="45.5037" lon="4.68847">
        <ele>473.11</ele>
        <time>2014-03-21T13:12:36Z</time>
      </trkpt>
      <trkpt lat="45.50369" lon="4.68847">
        <ele>473.11</ele>
        <time>2014-03-21T13:12:37Z</time>
      </trkpt>
      <trkpt lat="45.50368" lon="4.68847">
        <ele>477.43</ele>
        <time>2014-03-21T13:12:38Z</time>
      </trkpt>
      <trkpt lat="45.50367" lon="4.68847">
        <ele>475.03</ele>
        <time>2014-03-21T13:12:39Z</time>
      </trkpt>
      <trkpt lat="45.50355" lon="4.68852">
        <ele>478.87</ele>
        <time>2014-03-21T13:12:51Z</time>
      </trkpt>
      <trkpt lat="45.50353" lon="4.68852">
        <ele>478.39</ele>
        <time>2014-03-21T13:12:52Z</time>
      </trkpt>
      <trkpt lat="45.5034" lon="4.68842">
        <ele>479.35</ele>
        <time>2014-03-21T13:13:06Z</time>
      </trkpt>
      <trkpt lat="45.50333" lon="4.68833">
        <ele>480.8</ele>
        <time>2014-03-21T13:13:14Z</time>
      </trkpt>
      <trkpt lat="45.5032" lon="4.68816">
        <ele>481.28</ele>
        <time>2014-03-21T13:13:29Z</time>
      </trkpt>
      <trkpt lat="45.50313" lon="4.68802">
        <ele>482.24</ele>
        <time>2014-03-21T13:13:38Z</time>
      </trkpt>
      <trkpt lat="45.50305" lon="4.68786">
        <ele>481.76</ele>
        <time>2014-03-21T13:13:51Z</time>
      </trkpt>
      <trkpt lat="45.50297" lon="4.68777">
        <ele>483.68</ele>
        <time>2014-03-21T13:13:59Z</time>
      </trkpt>
      <trkpt lat="45.50292" lon="4.68773">
        <ele>484.64</ele>
        <time>2014-03-21T13:14:05Z</time>
      </trkpt>
      <trkpt lat="45.5028" lon="4.68766">
        <ele>486.08</ele>
        <time>2014-03-21T13:14:16Z</time>
      </trkpt>
      <trkpt lat="45.50259" lon="4.68757">
        <ele>487.53</ele>
        <time>2014-03-21T13:14:34Z</time>
      </trkpt>
      <trkpt lat="45.50247" lon="4.68753">
        <ele>489.45</ele>
        <time>2014-03-21T13:14:47Z</time>
      </trkpt>
      <trkpt lat="45.50245" lon="4.68759">
        <ele>491.37</ele>
        <time>2014-03-21T13:14:54Z</time>
      </trkpt>
      <trkpt lat="45.50244" lon="4.6877">
        <ele>491.85</ele>
        <time>2014-03-21T13:15:00Z</time>
      </trkpt>
      <trkpt lat="45.50247" lon="4.68795">
        <ele>494.26</ele>
        <time>2014-03-21T13:15:17Z</time>
      </trkpt>
      <trkpt lat="45.50242" lon="4.68816">
        <ele>494.26</ele>
        <time>2014-03-21T13:15:30Z</time>
      </trkpt>
      <trkpt lat="45.50239" lon="4.68819">
        <ele>494.74</ele>
        <time>2014-03-21T13:15:33Z</time>
      </trkpt>
      <trkpt lat="45.50235" lon="4.68819">
        <ele>495.7</ele>
        <time>2014-03-21T13:15:38Z</time>
      </trkpt>
      <trkpt lat="45.50225" lon="4.68803">
        <ele>496.66</ele>
        <time>2014-03-21T13:15:50Z</time>
      </trkpt>
      <trkpt lat="45.5022" lon="4.68797">
        <ele>497.14</ele>
        <time>2014-03-21T13:15:56Z</time>
      </trkpt>
      <trkpt lat="45.50206" lon="4.68777">
        <ele>498.58</ele>
        <time>2014-03-21T13:16:12Z</time>
      </trkpt>
      <trkpt lat="45.502" lon="4.68772">
        <ele>499.06</ele>
        <time>2014-03-21T13:16:18Z</time>
      </trkpt>
      <trkpt lat="45.50196" lon="4.68773">
        <ele>499.06</ele>
        <time>2014-03-21T13:16:22Z</time>
      </trkpt>
      <trkpt lat="45.50182" lon="4.68783">
        <ele>501.95</ele>
        <time>2014-03-21T13:16:38Z</time>
      </trkpt>
      <trkpt lat="45.50174" lon="4.68788">
        <ele>502.43</ele>
        <time>2014-03-21T13:16:46Z</time>
      </trkpt>
      <trkpt lat="45.50172" lon="4.68789">
        <ele>503.39</ele>
        <time>2014-03-21T13:16:48Z</time>
      </trkpt>
      <trkpt lat="45.50162" lon="4.68795">
        <ele>506.75</ele>
        <time>2014-03-21T13:16:59Z</time>
      </trkpt>
      <trkpt lat="45.50161" lon="4.68796">
        <ele>507.23</ele>
        <time>2014-03-21T13:17:00Z</time>
      </trkpt>
      <trkpt lat="45.50145" lon="4.68802">
        <ele>508.67</ele>
        <time>2014-03-21T13:17:15Z</time>
      </trkpt>
      <trkpt lat="45.50143" lon="4.68803">
        <ele>507.71</ele>
        <time>2014-03-21T13:17:17Z</time>
      </trkpt>
      <trkpt lat="45.50139" lon="4.68804">
        <ele>511.08</ele>
        <time>2014-03-21T13:17:21Z</time>
      </trkpt>
      <trkpt lat="45.50138" lon="4.68805">
        <ele>510.6</ele>
        <time>2014-03-21T13:17:22Z</time>
      </trkpt>
      <trkpt lat="45.50129" lon="4.68808">
        <ele>511.08</ele>
        <time>2014-03-21T13:17:30Z</time>
      </trkpt>
      <trkpt lat="45.50111" lon="4.68812">
        <ele>515.4</ele>
        <time>2014-03-21T13:17:47Z</time>
      </trkpt>
      <trkpt lat="45.50108" lon="4.68813">
        <ele>515.88</ele>
        <time>2014-03-21T13:17:49Z</time>
      </trkpt>
      <trkpt lat="45.50104" lon="4.68815">
        <ele>519.73</ele>
        <time>2014-03-21T13:17:54Z</time>
      </trkpt>
      <trkpt lat="45.50101" lon="4.68816">
        <ele>516.85</ele>
        <time>2014-03-21T13:18:02Z</time>
      </trkpt>
      <trkpt lat="45.50099" lon="4.68818">
        <ele>517.81</ele>
        <time>2014-03-21T13:18:04Z</time>
      </trkpt>
      <trkpt lat="45.50096" lon="4.68818">
        <ele>519.73</ele>
        <time>2014-03-21T13:18:08Z</time>
      </trkpt>
      <trkpt lat="45.50092" lon="4.68819">
        <ele>519.25</ele>
        <time>2014-03-21T13:18:14Z</time>
      </trkpt>
      <trkpt lat="45.50082" lon="4.68818">
        <ele>522.13</ele>
        <time>2014-03-21T13:18:26Z</time>
      </trkpt>
      <trkpt lat="45.50076" lon="4.6882">
        <ele>524.06</ele>
        <time>2014-03-21T13:18:33Z</time>
      </trkpt>
      <trkpt lat="45.50062" lon="4.6882">
        <ele>525.5</ele>
        <time>2014-03-21T13:18:47Z</time>
      </trkpt>
      <trkpt lat="45.50058" lon="4.6882">
        <ele>527.42</ele>
        <time>2014-03-21T13:18:51Z</time>
      </trkpt>
      <trkpt lat="45.50057" lon="4.6882">
        <ele>527.42</ele>
        <time>2014-03-21T13:18:53Z</time>
      </trkpt>
      <trkpt lat="45.50053" lon="4.68822">
        <ele>529.34</ele>
        <time>2014-03-21T13:18:58Z</time>
      </trkpt>
      <trkpt lat="45.50052" lon="4.68823">
        <ele>530.3</ele>
        <time>2014-03-21T13:19:00Z</time>
      </trkpt>
      <trkpt lat="45.50039" lon="4.68823">
        <ele>531.75</ele>
        <time>2014-03-21T13:19:14Z</time>
      </trkpt>
      <trkpt lat="45.5003" lon="4.68824">
        <ele>534.63</ele>
        <time>2014-03-21T13:19:24Z</time>
      </trkpt>
      <trkpt lat="45.50021" lon="4.68824">
        <ele>537.51</ele>
        <time>2014-03-21T13:19:34Z</time>
      </trkpt>
      <trkpt lat="45.50015" lon="4.68822">
        <ele>537.51</ele>
        <time>2014-03-21T13:19:40Z</time>
      </trkpt>
      <trkpt lat="45.50003" lon="4.68823">
        <ele>539.92</ele>
        <time>2014-03-21T13:19:53Z</time>
      </trkpt>
      <trkpt lat="45.49995" lon="4.68827">
        <ele>543.28</ele>
        <time>2014-03-21T13:20:01Z</time>
      </trkpt>
      <trkpt lat="45.49985" lon="4.68827">
        <ele>543.76</ele>
        <time>2014-03-21T13:20:13Z</time>
      </trkpt>
      <trkpt lat="45.4998" lon="4.68828">
        <ele>545.69</ele>
        <time>2014-03-21T13:20:19Z</time>
      </trkpt>
      <trkpt lat="45.49977" lon="4.68828">
        <ele>546.17</ele>
        <time>2014-03-21T13:20:22Z</time>
      </trkpt>
      <trkpt lat="45.49975" lon="4.68829">
        <ele>545.2</ele>
        <time>2014-03-21T13:20:24Z</time>
      </trkpt>
      <trkpt lat="45.49968" lon="4.6883">
        <ele>547.61</ele>
        <time>2014-03-21T13:20:31Z</time>
      </trkpt>
      <trkpt lat="45.49966" lon="4.68831">
        <ele>548.09</ele>
        <time>2014-03-21T13:20:33Z</time>
      </trkpt>
      <trkpt lat="45.49958" lon="4.68834">
        <ele>549.05</ele>
        <time>2014-03-21T13:20:42Z</time>
      </trkpt>
      <trkpt lat="45.49952" lon="4.68836">
        <ele>548.57</ele>
        <time>2014-03-21T13:20:49Z</time>
      </trkpt>
      <trkpt lat="45.49947" lon="4.68838">
        <ele>550.49</ele>
        <time>2014-03-21T13:20:55Z</time>
      </trkpt>
      <trkpt lat="45.49934" lon="4.68843">
        <ele>554.34</ele>
        <time>2014-03-21T13:21:07Z</time>
      </trkpt>
      <trkpt lat="45.49924" lon="4.68845">
        <ele>553.86</ele>
        <time>2014-03-21T13:21:18Z</time>
      </trkpt>
      <trkpt lat="45.49921" lon="4.68845">
        <ele>555.78</ele>
        <time>2014-03-21T13:21:21Z</time>
      </trkpt>
      <trkpt lat="45.49906" lon="4.68846">
        <ele>558.18</ele>
        <time>2014-03-21T13:21:36Z</time>
      </trkpt>
      <trkpt lat="45.499" lon="4.68846">
        <ele>560.59</ele>
        <time>2014-03-21T13:21:43Z</time>
      </trkpt>
      <trkpt lat="45.49889" lon="4.68849">
        <ele>562.99</ele>
        <time>2014-03-21T13:21:56Z</time>
      </trkpt>
      <trkpt lat="45.49877" lon="4.68843">
        <ele>565.39</ele>
        <time>2014-03-21T13:22:10Z</time>
      </trkpt>
      <trkpt lat="45.49873" lon="4.68841">
        <ele>566.35</ele>
        <time>2014-03-21T13:22:23Z</time>
      </trkpt>
      <trkpt lat="45.49873" lon="4.6884">
        <ele>565.39</ele>
        <time>2014-03-21T13:22:33Z</time>
      </trkpt>
      <trkpt lat="45.49877" lon="4.68843">
        <ele>564.91</ele>
        <time>2014-03-21T13:22:46Z</time>
      </trkpt>
      <trkpt lat="45.49872" lon="4.68842">
        <ele>565.87</ele>
        <time>2014-03-21T13:23:05Z</time>
      </trkpt>
      <trkpt lat="45.49872" lon="4.68846">
        <ele>566.35</ele>
        <time>2014-03-21T13:23:33Z</time>
      </trkpt>
      <trkpt lat="45.49877" lon="4.68848">
        <ele>566.35</ele>
        <time>2014-03-21T13:23:53Z</time>
      </trkpt>
      <trkpt lat="45.49873" lon="4.68846">
        <ele>566.35</ele>
        <time>2014-03-21T13:24:14Z</time>
      </trkpt>
      <trkpt lat="45.49872" lon="4.68847">
        <ele>566.35</ele>
        <time>2014-03-21T13:24:36Z</time>
      </trkpt>
      <trkpt lat="45.49874" lon="4.68843">
        <ele>565.87</ele>
        <time>2014-03-21T13:25:05Z</time>
      </trkpt>
      <trkpt lat="45.49875" lon="4.68841">
        <ele>565.87</ele>
        <time>2014-03-21T13:25:30Z</time>
      </trkpt>
      <trkpt lat="45.49876" lon="4.6884">
        <ele>566.83</ele>
        <time>2014-03-21T13:25:59Z</time>
      </trkpt>
      <trkpt lat="45.49874" lon="4.68842">
        <ele>565.87</ele>
        <time>2014-03-21T13:26:26Z</time>
      </trkpt>
      <trkpt lat="45.49871" lon="4.68841">
        <ele>566.35</ele>
        <time>2014-03-21T13:26:41Z</time>
      </trkpt>
      <trkpt lat="45.49863" lon="4.68838">
        <ele>568.76</ele>
        <time>2014-03-21T13:26:55Z</time>
      </trkpt>
      <trkpt lat="45.49853" lon="4.68837">
        <ele>570.68</ele>
        <time>2014-03-21T13:27:10Z</time>
      </trkpt>
      <trkpt lat="45.49843" lon="4.68839">
        <ele>573.08</ele>
        <time>2014-03-21T13:27:25Z</time>
      </trkpt>
      <trkpt lat="45.49832" lon="4.68842">
        <ele>575.49</ele>
        <time>2014-03-21T13:27:37Z</time>
      </trkpt>
      <trkpt lat="45.49823" lon="4.68844">
        <ele>578.37</ele>
        <time>2014-03-21T13:27:52Z</time>
      </trkpt>
      <trkpt lat="45.49811" lon="4.6885">
        <ele>580.29</ele>
        <time>2014-03-21T13:28:05Z</time>
      </trkpt>
      <trkpt lat="45.49802" lon="4.68853">
        <ele>583.18</ele>
        <time>2014-03-21T13:28:17Z</time>
      </trkpt>
      <trkpt lat="45.49793" lon="4.68856">
        <ele>584.62</ele>
        <time>2014-03-21T13:28:28Z</time>
      </trkpt>
      <trkpt lat="45.49785" lon="4.68858">
        <ele>587.5</ele>
        <time>2014-03-21T13:28:41Z</time>
      </trkpt>
      <trkpt lat="45.49775" lon="4.68862">
        <ele>589.43</ele>
        <time>2014-03-21T13:28:53Z</time>
      </trkpt>
      <trkpt lat="45.49769" lon="4.68864">
        <ele>591.35</ele>
        <time>2014-03-21T13:29:05Z</time>
      </trkpt>
      <trkpt lat="45.49759" lon="4.68869">
        <ele>593.75</ele>
        <time>2014-03-21T13:29:19Z</time>
      </trkpt>
      <trkpt lat="45.49749" lon="4.68872">
        <ele>596.15</ele>
        <time>2014-03-21T13:29:32Z</time>
      </trkpt>
      <trkpt lat="45.4974" lon="4.68875">
        <ele>598.08</ele>
        <time>2014-03-21T13:29:43Z</time>
      </trkpt>
      <trkpt lat="45.49732" lon="4.68875">
        <ele>601.44</ele>
        <time>2014-03-21T13:29:57Z</time>
      </trkpt>
      <trkpt lat="45.4972" lon="4.68876">
        <ele>603.36</ele>
        <time>2014-03-21T13:30:11Z</time>
      </trkpt>
      <trkpt lat="45.49717" lon="4.68878">
        <ele>604.33</ele>
        <time>2014-03-21T13:30:26Z</time>
      </trkpt>
      <trkpt lat="45.49716" lon="4.68881">
        <ele>604.81</ele>
        <time>2014-03-21T13:30:51Z</time>
      </trkpt>
      <trkpt lat="45.49713" lon="4.68876">
        <ele>604.33</ele>
        <time>2014-03-21T13:31:16Z</time>
      </trkpt>
      <trkpt lat="45.49714" lon="4.68873">
        <ele>603.36</ele>
        <time>2014-03-21T13:31:40Z</time>
      </trkpt>
      <trkpt lat="45.49715" lon="4.68876">
        <ele>603.85</ele>
        <time>2014-03-21T13:31:56Z</time>
      </trkpt>
      <trkpt lat="45.49714" lon="4.68878">
        <ele>603.36</ele>
        <time>2014-03-21T13:32:23Z</time>
      </trkpt>
      <trkpt lat="45.49711" lon="4.68877">
        <ele>604.33</ele>
        <time>2014-03-21T13:32:50Z</time>
      </trkpt>
      <trkpt lat="45.49712" lon="4.68876">
        <ele>603.85</ele>
        <time>2014-03-21T13:33:24Z</time>
      </trkpt>
      <trkpt lat="45.49712" lon="4.68878">
        <ele>603.36</ele>
        <time>2014-03-21T13:33:54Z</time>
      </trkpt>
      <trkpt lat="45.49711" lon="4.68872">
        <ele>603.36</ele>
        <time>2014-03-21T13:34:26Z</time>
      </trkpt>
      <trkpt lat="45.49709" lon="4.68876">
        <ele>603.85</ele>
        <time>2014-03-21T13:34:55Z</time>
      </trkpt>
      <trkpt lat="45.49712" lon="4.68876">
        <ele>604.33</ele>
        <time>2014-03-21T13:35:18Z</time>
      </trkpt>
      <trkpt lat="45.49707" lon="4.68882">
        <ele>604.33</ele>
        <time>2014-03-21T13:35:43Z</time>
      </trkpt>
      <trkpt lat="45.49703" lon="4.68886">
        <ele>604.81</ele>
        <time>2014-03-21T13:36:14Z</time>
      </trkpt>
      <trkpt lat="45.49711" lon="4.68882">
        <ele>605.77</ele>
        <time>2014-03-21T13:36:41Z</time>
      </trkpt>
      <trkpt lat="45.49703" lon="4.68881">
        <ele>605.29</ele>
        <time>2014-03-21T13:37:00Z</time>
      </trkpt>
      <trkpt lat="45.49689" lon="4.68883">
        <ele>608.65</ele>
        <time>2014-03-21T13:37:18Z</time>
      </trkpt>
      <trkpt lat="45.49679" lon="4.68888">
        <ele>610.09</ele>
        <time>2014-03-21T13:37:33Z</time>
      </trkpt>
      <trkpt lat="45.49676" lon="4.6889">
        <ele>612.02</ele>
        <time>2014-03-21T13:37:37Z</time>
      </trkpt>
      <trkpt lat="45.4966" lon="4.68896">
        <ele>615.38</ele>
        <time>2014-03-21T13:37:53Z</time>
      </trkpt>
      <trkpt lat="45.49643" lon="4.68903">
        <ele>618.26</ele>
        <time>2014-03-21T13:38:11Z</time>
      </trkpt>
      <trkpt lat="45.49641" lon="4.68905">
        <ele>620.19</ele>
        <time>2014-03-21T13:38:15Z</time>
      </trkpt>
      <trkpt lat="45.49632" lon="4.68908">
        <ele>622.11</ele>
        <time>2014-03-21T13:38:25Z</time>
      </trkpt>
      <trkpt lat="45.49624" lon="4.68911">
        <ele>625.47</ele>
        <time>2014-03-21T13:38:34Z</time>
      </trkpt>
      <trkpt lat="45.49608" lon="4.68921">
        <ele>627.88</ele>
        <time>2014-03-21T13:38:53Z</time>
      </trkpt>
      <trkpt lat="45.49596" lon="4.68929">
        <ele>630.76</ele>
        <time>2014-03-21T13:39:07Z</time>
      </trkpt>
      <trkpt lat="45.49584" lon="4.68936">
        <ele>634.13</ele>
        <time>2014-03-21T13:39:24Z</time>
      </trkpt>
      <trkpt lat="45.49572" lon="4.68949">
        <ele>636.05</ele>
        <time>2014-03-21T13:39:39Z</time>
      </trkpt>
      <trkpt lat="45.49569" lon="4.68951">
        <ele>637.97</ele>
        <time>2014-03-21T13:39:44Z</time>
      </trkpt>
      <trkpt lat="45.49558" lon="4.68955">
        <ele>640.86</ele>
        <time>2014-03-21T13:39:57Z</time>
      </trkpt>
      <trkpt lat="45.49548" lon="4.6896">
        <ele>644.22</ele>
        <time>2014-03-21T13:40:09Z</time>
      </trkpt>
      <trkpt lat="45.49541" lon="4.68964">
        <ele>644.7</ele>
        <time>2014-03-21T13:40:17Z</time>
      </trkpt>
      <trkpt lat="45.49531" lon="4.68967">
        <ele>646.62</ele>
        <time>2014-03-21T13:40:29Z</time>
      </trkpt>
      <trkpt lat="45.49524" lon="4.68968">
        <ele>649.03</ele>
        <time>2014-03-21T13:40:38Z</time>
      </trkpt>
      <trkpt lat="45.49519" lon="4.68971">
        <ele>648.55</ele>
        <time>2014-03-21T13:40:43Z</time>
      </trkpt>
      <trkpt lat="45.49516" lon="4.68974">
        <ele>650.47</ele>
        <time>2014-03-21T13:40:46Z</time>
      </trkpt>
      <trkpt lat="45.49511" lon="4.68976">
        <ele>651.43</ele>
        <time>2014-03-21T13:40:51Z</time>
      </trkpt>
      <trkpt lat="45.49506" lon="4.68979">
        <ele>654.8</ele>
        <time>2014-03-21T13:40:59Z</time>
      </trkpt>
      <trkpt lat="45.49505" lon="4.68979">
        <ele>654.8</ele>
        <time>2014-03-21T13:41:00Z</time>
      </trkpt>
      <trkpt lat="45.49498" lon="4.68985">
        <ele>656.24</ele>
        <time>2014-03-21T13:41:11Z</time>
      </trkpt>
      <trkpt lat="45.49483" lon="4.68991">
        <ele>659.12</ele>
        <time>2014-03-21T13:41:24Z</time>
      </trkpt>
      <trkpt lat="45.49477" lon="4.68996">
        <ele>660.08</ele>
        <time>2014-03-21T13:41:34Z</time>
      </trkpt>
      <trkpt lat="45.49468" lon="4.69002">
        <ele>662.01</ele>
        <time>2014-03-21T13:41:47Z</time>
      </trkpt>
      <trkpt lat="45.4946" lon="4.69007">
        <ele>662.01</ele>
        <time>2014-03-21T13:41:57Z</time>
      </trkpt>
      <trkpt lat="45.49448" lon="4.69015">
        <ele>662.97</ele>
        <time>2014-03-21T13:42:11Z</time>
      </trkpt>
      <trkpt lat="45.49446" lon="4.69017">
        <ele>664.41</ele>
        <time>2014-03-21T13:42:14Z</time>
      </trkpt>
      <trkpt lat="45.49437" lon="4.69026">
        <ele>664.41</ele>
        <time>2014-03-21T13:42:25Z</time>
      </trkpt>
      <trkpt lat="45.49432" lon="4.69029">
        <ele>663.93</ele>
        <time>2014-03-21T13:42:32Z</time>
      </trkpt>
      <trkpt lat="45.49417" lon="4.69038">
        <ele>665.37</ele>
        <time>2014-03-21T13:42:47Z</time>
      </trkpt>
      <trkpt lat="45.49416" lon="4.69037">
        <ele>666.81</ele>
        <time>2014-03-21T13:43:04Z</time>
      </trkpt>
      <trkpt lat="45.49416" lon="4.69034">
        <ele>663.93</ele>
        <time>2014-03-21T13:43:21Z</time>
      </trkpt>
      <trkpt lat="45.49416" lon="4.69034">
        <ele>667.29</ele>
        <time>2014-03-21T13:43:22Z</time>
      </trkpt>
      <trkpt lat="45.4942" lon="4.69033">
        <ele>665.37</ele>
        <time>2014-03-21T13:43:47Z</time>
      </trkpt>
      <trkpt lat="45.49421" lon="4.69032">
        <ele>665.85</ele>
        <time>2014-03-21T13:44:06Z</time>
      </trkpt>
      <trkpt lat="45.49428" lon="4.69029">
        <ele>665.37</ele>
        <time>2014-03-21T13:44:21Z</time>
      </trkpt>
      <trkpt lat="45.49433" lon="4.69032">
        <ele>664.89</ele>
        <time>2014-03-21T13:44:44Z</time>
      </trkpt>
      <trkpt lat="45.49431" lon="4.69029">
        <ele>665.85</ele>
        <time>2014-03-21T13:45:08Z</time>
      </trkpt>
      <trkpt lat="45.49431" lon="4.69035">
        <ele>666.33</ele>
        <time>2014-03-21T13:45:34Z</time>
      </trkpt>
      <trkpt lat="45.4943" lon="4.69023">
        <ele>665.85</ele>
        <time>2014-03-21T13:46:01Z</time>
      </trkpt>
      <trkpt lat="45.49431" lon="4.69025">
        <ele>665.37</ele>
        <time>2014-03-21T13:46:27Z</time>
      </trkpt>
      <trkpt lat="45.49428" lon="4.69021">
        <ele>664.89</ele>
        <time>2014-03-21T13:46:55Z</time>
      </trkpt>
      <trkpt lat="45.49424" lon="4.69016">
        <ele>664.41</ele>
        <time>2014-03-21T13:47:17Z</time>
      </trkpt>
      <trkpt lat="45.4943" lon="4.69019">
        <ele>665.37</ele>
        <time>2014-03-21T13:47:39Z</time>
      </trkpt>
      <trkpt lat="45.49422" lon="4.6903">
        <ele>666.33</ele>
        <time>2014-03-21T13:47:56Z</time>
      </trkpt>
      <trkpt lat="45.49408" lon="4.69041">
        <ele>666.81</ele>
        <time>2014-03-21T13:48:12Z</time>
      </trkpt>
      <trkpt lat="45.49404" lon="4.69043">
        <ele>667.29</ele>
        <time>2014-03-21T13:48:16Z</time>
      </trkpt>
      <trkpt lat="45.49395" lon="4.69047">
        <ele>668.25</ele>
        <time>2014-03-21T13:48:30Z</time>
      </trkpt>
      <trkpt lat="45.49382" lon="4.69054">
        <ele>668.25</ele>
        <time>2014-03-21T13:48:44Z</time>
      </trkpt>
      <trkpt lat="45.49372" lon="4.69059">
        <ele>670.18</ele>
        <time>2014-03-21T13:48:58Z</time>
      </trkpt>
      <trkpt lat="45.49361" lon="4.69065">
        <ele>671.62</ele>
        <time>2014-03-21T13:49:13Z</time>
      </trkpt>
      <trkpt lat="45.49351" lon="4.69069">
        <ele>672.58</ele>
        <time>2014-03-21T13:49:24Z</time>
      </trkpt>
      <trkpt lat="45.4934" lon="4.69073">
        <ele>674.98</ele>
        <time>2014-03-21T13:49:36Z</time>
      </trkpt>
      <trkpt lat="45.49331" lon="4.69076">
        <ele>675.94</ele>
        <time>2014-03-21T13:49:48Z</time>
      </trkpt>
      <trkpt lat="45.49319" lon="4.69078">
        <ele>678.83</ele>
        <time>2014-03-21T13:50:02Z</time>
      </trkpt>
      <trkpt lat="45.49306" lon="4.69081">
        <ele>680.75</ele>
        <time>2014-03-21T13:50:13Z</time>
      </trkpt>
      <trkpt lat="45.49295" lon="4.69082">
        <ele>682.19</ele>
        <time>2014-03-21T13:50:26Z</time>
      </trkpt>
      <trkpt lat="45.49289" lon="4.69083">
        <ele>683.63</ele>
        <time>2014-03-21T13:50:30Z</time>
      </trkpt>
      <trkpt lat="45.49277" lon="4.69088">
        <ele>686.04</ele>
        <time>2014-03-21T13:50:43Z</time>
      </trkpt>
      <trkpt lat="45.49265" lon="4.69091">
        <ele>687.48</ele>
        <time>2014-03-21T13:50:56Z</time>
      </trkpt>
      <trkpt lat="45.49254" lon="4.69097">
        <ele>688.92</ele>
        <time>2014-03-21T13:51:07Z</time>
      </trkpt>
      <trkpt lat="45.49246" lon="4.691">
        <ele>690.36</ele>
        <time>2014-03-21T13:51:15Z</time>
      </trkpt>
      <trkpt lat="45.49238" lon="4.69104">
        <ele>690.36</ele>
        <time>2014-03-21T13:51:28Z</time>
      </trkpt>
      <trkpt lat="45.49231" lon="4.69108">
        <ele>693.25</ele>
        <time>2014-03-21T13:51:37Z</time>
      </trkpt>
      <trkpt lat="45.49223" lon="4.69114">
        <ele>694.69</ele>
        <time>2014-03-21T13:51:49Z</time>
      </trkpt>
      <trkpt lat="45.49213" lon="4.69116">
        <ele>695.17</ele>
        <time>2014-03-21T13:52:05Z</time>
      </trkpt>
      <trkpt lat="45.49207" lon="4.69116">
        <ele>694.69</ele>
        <time>2014-03-21T13:52:34Z</time>
      </trkpt>
      <trkpt lat="45.49207" lon="4.69119">
        <ele>694.21</ele>
        <time>2014-03-21T13:53:08Z</time>
      </trkpt>
      <trkpt lat="45.49207" lon="4.69126">
        <ele>695.17</ele>
        <time>2014-03-21T13:53:25Z</time>
      </trkpt>
      <trkpt lat="45.49195" lon="4.69131">
        <ele>695.65</ele>
        <time>2014-03-21T13:53:38Z</time>
      </trkpt>
      <trkpt lat="45.49187" lon="4.69136">
        <ele>697.57</ele>
        <time>2014-03-21T13:53:54Z</time>
      </trkpt>
      <trkpt lat="45.49174" lon="4.69144">
        <ele>699.02</ele>
        <time>2014-03-21T13:54:10Z</time>
      </trkpt>
      <trkpt lat="45.49162" lon="4.69153">
        <ele>700.94</ele>
        <time>2014-03-21T13:54:24Z</time>
      </trkpt>
      <trkpt lat="45.49153" lon="4.69163">
        <ele>701.9</ele>
        <time>2014-03-21T13:54:37Z</time>
      </trkpt>
      <trkpt lat="45.4914" lon="4.69176">
        <ele>701.9</ele>
        <time>2014-03-21T13:54:52Z</time>
      </trkpt>
      <trkpt lat="45.49128" lon="4.69193">
        <ele>701.9</ele>
        <time>2014-03-21T13:55:06Z</time>
      </trkpt>
      <trkpt lat="45.49128" lon="4.69195">
        <ele>701.9</ele>
        <time>2014-03-21T13:55:07Z</time>
      </trkpt>
      <trkpt lat="45.49122" lon="4.69208">
        <ele>702.38</ele>
        <time>2014-03-21T13:55:17Z</time>
      </trkpt>
      <trkpt lat="45.49117" lon="4.69221">
        <ele>703.34</ele>
        <time>2014-03-21T13:55:28Z</time>
      </trkpt>
      <trkpt lat="45.49116" lon="4.69226">
        <ele>703.34</ele>
        <time>2014-03-21T13:55:32Z</time>
      </trkpt>
      <trkpt lat="45.49113" lon="4.69239">
        <ele>704.3</ele>
        <time>2014-03-21T13:55:45Z</time>
      </trkpt>
      <trkpt lat="45.49109" lon="4.69255">
        <ele>703.82</ele>
        <time>2014-03-21T13:55:57Z</time>
      </trkpt>
      <trkpt lat="45.49106" lon="4.69263">
        <ele>704.78</ele>
        <time>2014-03-21T13:56:04Z</time>
      </trkpt>
      <trkpt lat="45.49101" lon="4.6928">
        <ele>704.78</ele>
        <time>2014-03-21T13:56:17Z</time>
      </trkpt>
      <trkpt lat="45.49098" lon="4.69303">
        <ele>705.75</ele>
        <time>2014-03-21T13:56:33Z</time>
      </trkpt>
      <trkpt lat="45.49094" lon="4.69314">
        <ele>707.19</ele>
        <time>2014-03-21T13:56:40Z</time>
      </trkpt>
      <trkpt lat="45.49086" lon="4.6933">
        <ele>708.15</ele>
        <time>2014-03-21T13:56:53Z</time>
      </trkpt>
      <trkpt lat="45.49082" lon="4.69337">
        <ele>708.63</ele>
        <time>2014-03-21T13:56:59Z</time>
      </trkpt>
      <trkpt lat="45.49075" lon="4.69356">
        <ele>710.55</ele>
        <time>2014-03-21T13:57:13Z</time>
      </trkpt>
      <trkpt lat="45.49068" lon="4.69369">
        <ele>710.55</ele>
        <time>2014-03-21T13:57:25Z</time>
      </trkpt>
      <trkpt lat="45.49059" lon="4.69383">
        <ele>711.03</ele>
        <time>2014-03-21T13:57:38Z</time>
      </trkpt>
      <trkpt lat="45.49049" lon="4.69394">
        <ele>711.03</ele>
        <time>2014-03-21T13:57:52Z</time>
      </trkpt>
      <trkpt lat="45.49034" lon="4.69406">
        <ele>711.51</ele>
        <time>2014-03-21T13:58:08Z</time>
      </trkpt>
      <trkpt lat="45.49026" lon="4.69415">
        <ele>712.47</ele>
        <time>2014-03-21T13:58:20Z</time>
      </trkpt>
      <trkpt lat="45.49017" lon="4.69426">
        <ele>713.92</ele>
        <time>2014-03-21T13:58:33Z</time>
      </trkpt>
      <trkpt lat="45.49012" lon="4.69429">
        <ele>712.95</ele>
        <time>2014-03-21T13:58:37Z</time>
      </trkpt>
      <trkpt lat="45.49003" lon="4.69439">
        <ele>714.4</ele>
        <time>2014-03-21T13:58:48Z</time>
      </trkpt>
      <trkpt lat="45.4899" lon="4.69449">
        <ele>715.84</ele>
        <time>2014-03-21T13:58:59Z</time>
      </trkpt>
      <trkpt lat="45.48979" lon="4.6946">
        <ele>716.8</ele>
        <time>2014-03-21T13:59:12Z</time>
      </trkpt>
      <trkpt lat="45.48968" lon="4.69469">
        <ele>717.76</ele>
        <time>2014-03-21T13:59:26Z</time>
      </trkpt>
      <trkpt lat="45.48955" lon="4.69478">
        <ele>718.24</ele>
        <time>2014-03-21T13:59:39Z</time>
      </trkpt>
      <trkpt lat="45.4894" lon="4.69482">
        <ele>718.72</ele>
        <time>2014-03-21T13:59:52Z</time>
      </trkpt>
      <trkpt lat="45.48929" lon="4.69488">
        <ele>718.24</ele>
        <time>2014-03-21T14:00:06Z</time>
      </trkpt>
      <trkpt lat="45.48914" lon="4.69497">
        <ele>720.16</ele>
        <time>2014-03-21T14:00:20Z</time>
      </trkpt>
      <trkpt lat="45.48902" lon="4.69505">
        <ele>720.65</ele>
        <time>2014-03-21T14:00:33Z</time>
      </trkpt>
      <trkpt lat="45.48889" lon="4.69509">
        <ele>720.65</ele>
        <time>2014-03-21T14:00:49Z</time>
      </trkpt>
      <trkpt lat="45.48886" lon="4.69511">
        <ele>720.16</ele>
        <time>2014-03-21T14:00:53Z</time>
      </trkpt>
      <trkpt lat="45.4888" lon="4.69514">
        <ele>720.65</ele>
        <time>2014-03-21T14:01:00Z</time>
      </trkpt>
      <trkpt lat="45.48862" lon="4.69522">
        <ele>720.65</ele>
        <time>2014-03-21T14:01:15Z</time>
      </trkpt>
      <trkpt lat="45.48857" lon="4.69525">
        <ele>721.61</ele>
        <time>2014-03-21T14:01:20Z</time>
      </trkpt>
      <trkpt lat="45.48853" lon="4.69526">
        <ele>719.68</ele>
        <time>2014-03-21T14:01:24Z</time>
      </trkpt>
      <trkpt lat="45.4884" lon="4.6953">
        <ele>721.61</ele>
        <time>2014-03-21T14:01:38Z</time>
      </trkpt>
      <trkpt lat="45.48824" lon="4.69534">
        <ele>720.16</ele>
        <time>2014-03-21T14:01:54Z</time>
      </trkpt>
      <trkpt lat="45.48814" lon="4.69537">
        <ele>718.72</ele>
        <time>2014-03-21T14:02:04Z</time>
      </trkpt>
      <trkpt lat="45.48803" lon="4.69539">
        <ele>716.8</ele>
        <time>2014-03-21T14:02:16Z</time>
      </trkpt>
      <trkpt lat="45.48794" lon="4.6954">
        <ele>717.76</ele>
        <time>2014-03-21T14:02:24Z</time>
      </trkpt>
      <trkpt lat="45.48781" lon="4.6954">
        <ele>715.36</ele>
        <time>2014-03-21T14:02:38Z</time>
      </trkpt>
      <trkpt lat="45.48779" lon="4.6954">
        <ele>717.28</ele>
        <time>2014-03-21T14:02:42Z</time>
      </trkpt>
      <trkpt lat="45.48784" lon="4.69538">
        <ele>718.24</ele>
        <time>2014-03-21T14:02:54Z</time>
      </trkpt>
      <trkpt lat="45.48786" lon="4.69539">
        <ele>718.24</ele>
        <time>2014-03-21T14:03:15Z</time>
      </trkpt>
      <trkpt lat="45.48785" lon="4.69538">
        <ele>717.76</ele>
        <time>2014-03-21T14:03:43Z</time>
      </trkpt>
      <trkpt lat="45.48787" lon="4.69538">
        <ele>716.32</ele>
        <time>2014-03-21T14:04:06Z</time>
      </trkpt>
      <trkpt lat="45.48787" lon="4.69538">
        <ele>716.8</ele>
        <time>2014-03-21T14:04:07Z</time>
      </trkpt>
      <trkpt lat="45.4879" lon="4.69538">
        <ele>719.2</ele>
        <time>2014-03-21T14:04:22Z</time>
      </trkpt>
      <trkpt lat="45.48792" lon="4.69538">
        <ele>718.72</ele>
        <time>2014-03-21T14:04:32Z</time>
      </trkpt>
      <trkpt lat="45.48791" lon="4.69538">
        <ele>718.24</ele>
        <time>2014-03-21T14:04:55Z</time>
      </trkpt>
      <trkpt lat="45.48792" lon="4.6954">
        <ele>718.72</ele>
        <time>2014-03-21T14:05:07Z</time>
      </trkpt>
      <trkpt lat="45.48786" lon="4.6954">
        <ele>716.32</ele>
        <time>2014-03-21T14:05:15Z</time>
      </trkpt>
      <trkpt lat="45.48784" lon="4.69537">
        <ele>716.8</ele>
        <time>2014-03-21T14:05:17Z</time>
      </trkpt>
      <trkpt lat="45.48776" lon="4.69538">
        <ele>716.8</ele>
        <time>2014-03-21T14:05:29Z</time>
      </trkpt>
      <trkpt lat="45.48774" lon="4.6954">
        <ele>716.8</ele>
        <time>2014-03-21T14:05:47Z</time>
      </trkpt>
      <trkpt lat="45.4877" lon="4.69543">
        <ele>713.44</ele>
        <time>2014-03-21T14:05:52Z</time>
      </trkpt>
      <trkpt lat="45.48769" lon="4.69541">
        <ele>717.28</ele>
        <time>2014-03-21T14:05:54Z</time>
      </trkpt>
      <trkpt lat="45.48769" lon="4.69541">
        <ele>716.32</ele>
        <time>2014-03-21T14:05:55Z</time>
      </trkpt>
      <trkpt lat="45.48769" lon="4.6954">
        <ele>712.47</ele>
        <time>2014-03-21T14:05:57Z</time>
      </trkpt>
      <trkpt lat="45.48769" lon="4.6954">
        <ele>712.47</ele>
        <time>2014-03-21T14:05:58Z</time>
      </trkpt>
      <trkpt lat="45.48768" lon="4.69539">
        <ele>715.36</ele>
        <time>2014-03-21T14:06:03Z</time>
      </trkpt>
      <trkpt lat="45.48761" lon="4.69542">
        <ele>712.95</ele>
        <time>2014-03-21T14:06:16Z</time>
      </trkpt>
      <trkpt lat="45.4875" lon="4.69544">
        <ele>711.51</ele>
        <time>2014-03-21T14:06:32Z</time>
      </trkpt>
      <trkpt lat="45.48743" lon="4.69547">
        <ele>708.15</ele>
        <time>2014-03-21T14:06:40Z</time>
      </trkpt>
      <trkpt lat="45.48741" lon="4.69547">
        <ele>707.19</ele>
        <time>2014-03-21T14:06:43Z</time>
      </trkpt>
      <trkpt lat="45.48725" lon="4.69549">
        <ele>703.82</ele>
        <time>2014-03-21T14:07:00Z</time>
      </trkpt>
      <trkpt lat="45.48713" lon="4.69551">
        <ele>700.94</ele>
        <time>2014-03-21T14:07:12Z</time>
      </trkpt>
      <trkpt lat="45.48712" lon="4.69551">
        <ele>700.46</ele>
        <time>2014-03-21T14:07:13Z</time>
      </trkpt>
      <trkpt lat="45.48707" lon="4.69552">
        <ele>697.09</ele>
        <time>2014-03-21T14:07:18Z</time>
      </trkpt>
      <trkpt lat="45.48698" lon="4.69555">
        <ele>700.94</ele>
        <time>2014-03-21T14:07:28Z</time>
      </trkpt>
      <trkpt lat="45.48694" lon="4.69556">
        <ele>698.05</ele>
        <time>2014-03-21T14:07:31Z</time>
      </trkpt>
      <trkpt lat="45.48688" lon="4.69556">
        <ele>695.17</ele>
        <time>2014-03-21T14:07:39Z</time>
      </trkpt>
      <trkpt lat="45.48681" lon="4.69557">
        <ele>692.29</ele>
        <time>2014-03-21T14:07:46Z</time>
      </trkpt>
      <trkpt lat="45.48679" lon="4.69558">
        <ele>693.73</ele>
        <time>2014-03-21T14:07:49Z</time>
      </trkpt>
      <trkpt lat="45.48674" lon="4.69558">
        <ele>690.84</ele>
        <time>2014-03-21T14:07:57Z</time>
      </trkpt>
      <trkpt lat="45.48673" lon="4.69559">
        <ele>690.84</ele>
        <time>2014-03-21T14:07:58Z</time>
      </trkpt>
      <trkpt lat="45.48664" lon="4.69559">
        <ele>689.4</ele>
        <time>2014-03-21T14:08:07Z</time>
      </trkpt>
      <trkpt lat="45.48659" lon="4.69556">
        <ele>687.48</ele>
        <time>2014-03-21T14:08:15Z</time>
      </trkpt>
      <trkpt lat="45.48654" lon="4.69553">
        <ele>687.48</ele>
        <time>2014-03-21T14:08:20Z</time>
      </trkpt>
      <trkpt lat="45.48651" lon="4.69548">
        <ele>686.04</ele>
        <time>2014-03-21T14:08:24Z</time>
      </trkpt>
      <trkpt lat="45.48645" lon="4.69544">
        <ele>685.08</ele>
        <time>2014-03-21T14:08:30Z</time>
      </trkpt>
      <trkpt lat="45.48642" lon="4.69544">
        <ele>683.63</ele>
        <time>2014-03-21T14:08:33Z</time>
      </trkpt>
      <trkpt lat="45.48636" lon="4.69543">
        <ele>681.71</ele>
        <time>2014-03-21T14:08:39Z</time>
      </trkpt>
      <trkpt lat="45.48633" lon="4.69544">
        <ele>679.31</ele>
        <time>2014-03-21T14:08:42Z</time>
      </trkpt>
      <trkpt lat="45.4863" lon="4.69543">
        <ele>681.23</ele>
        <time>2014-03-21T14:08:45Z</time>
      </trkpt>
      <trkpt lat="45.48621" lon="4.69538">
        <ele>680.27</ele>
        <time>2014-03-21T14:09:00Z</time>
      </trkpt>
      <trkpt lat="45.48617" lon="4.69538">
        <ele>676.91</ele>
        <time>2014-03-21T14:09:11Z</time>
      </trkpt>
      <trkpt lat="45.48615" lon="4.69538">
        <ele>676.42</ele>
        <time>2014-03-21T14:09:14Z</time>
      </trkpt>
      <trkpt lat="45.48604" lon="4.69535">
        <ele>674.02</ele>
        <time>2014-03-21T14:09:25Z</time>
      </trkpt>
      <trkpt lat="45.48594" lon="4.69532">
        <ele>672.1</ele>
        <time>2014-03-21T14:09:35Z</time>
      </trkpt>
      <trkpt lat="45.48579" lon="4.69534">
        <ele>670.66</ele>
        <time>2014-03-21T14:09:49Z</time>
      </trkpt>
      <trkpt lat="45.48569" lon="4.69533">
        <ele>666.81</ele>
        <time>2014-03-21T14:09:59Z</time>
      </trkpt>
      <trkpt lat="45.48568" lon="4.69533">
        <ele>666.81</ele>
        <time>2014-03-21T14:10:00Z</time>
      </trkpt>
      <trkpt lat="45.48556" lon="4.69529">
        <ele>664.89</ele>
        <time>2014-03-21T14:10:13Z</time>
      </trkpt>
      <trkpt lat="45.48543" lon="4.6953">
        <ele>663.93</ele>
        <time>2014-03-21T14:10:27Z</time>
      </trkpt>
      <trkpt lat="45.48535" lon="4.69528">
        <ele>662.49</ele>
        <time>2014-03-21T14:10:43Z</time>
      </trkpt>
      <trkpt lat="45.48534" lon="4.69532">
        <ele>661.52</ele>
        <time>2014-03-21T14:10:47Z</time>
      </trkpt>
      <trkpt lat="45.48524" lon="4.69545">
        <ele>659.6</ele>
        <time>2014-03-21T14:11:02Z</time>
      </trkpt>
      <trkpt lat="45.4852" lon="4.69543">
        <ele>660.08</ele>
        <time>2014-03-21T14:11:07Z</time>
      </trkpt>
      <trkpt lat="45.48509" lon="4.69529">
        <ele>657.68</ele>
        <time>2014-03-21T14:11:22Z</time>
      </trkpt>
      <trkpt lat="45.48501" lon="4.69513">
        <ele>655.28</ele>
        <time>2014-03-21T14:11:37Z</time>
      </trkpt>
      <trkpt lat="45.485" lon="4.69511">
        <ele>654.8</ele>
        <time>2014-03-21T14:11:38Z</time>
      </trkpt>
      <trkpt lat="45.48491" lon="4.69491">
        <ele>652.39</ele>
        <time>2014-03-21T14:11:53Z</time>
      </trkpt>
      <trkpt lat="45.48488" lon="4.69487">
        <ele>650.95</ele>
        <time>2014-03-21T14:11:57Z</time>
      </trkpt>
      <trkpt lat="45.48484" lon="4.69481">
        <ele>649.99</ele>
        <time>2014-03-21T14:12:02Z</time>
      </trkpt>
      <trkpt lat="45.48482" lon="4.69476">
        <ele>649.99</ele>
        <time>2014-03-21T14:12:06Z</time>
      </trkpt>
      <trkpt lat="45.48468" lon="4.69461">
        <ele>647.59</ele>
        <time>2014-03-21T14:12:23Z</time>
      </trkpt>
      <trkpt lat="45.48458" lon="4.6947">
        <ele>645.18</ele>
        <time>2014-03-21T14:12:37Z</time>
      </trkpt>
      <trkpt lat="45.48448" lon="4.69482">
        <ele>644.22</ele>
        <time>2014-03-21T14:12:54Z</time>
      </trkpt>
      <trkpt lat="45.48446" lon="4.69483">
        <ele>644.7</ele>
        <time>2014-03-21T14:13:17Z</time>
      </trkpt>
      <trkpt lat="45.48441" lon="4.69484">
        <ele>644.7</ele>
        <time>2014-03-21T14:13:41Z</time>
      </trkpt>
      <trkpt lat="45.48432" lon="4.69499">
        <ele>644.22</ele>
        <time>2014-03-21T14:13:57Z</time>
      </trkpt>
      <trkpt lat="45.48416" lon="4.69503">
        <ele>645.18</ele>
        <time>2014-03-21T14:14:12Z</time>
      </trkpt>
      <trkpt lat="45.48394" lon="4.69497">
        <ele>646.62</ele>
        <time>2014-03-21T14:14:31Z</time>
      </trkpt>
      <trkpt lat="45.48381" lon="4.69493">
        <ele>647.59</ele>
        <time>2014-03-21T14:14:46Z</time>
      </trkpt>
      <trkpt lat="45.48373" lon="4.69494">
        <ele>648.07</ele>
        <time>2014-03-21T14:14:53Z</time>
      </trkpt>
      <trkpt lat="45.48355" lon="4.695">
        <ele>649.99</ele>
        <time>2014-03-21T14:15:09Z</time>
      </trkpt>
      <trkpt lat="45.48347" lon="4.69501">
        <ele>649.51</ele>
        <time>2014-03-21T14:15:17Z</time>
      </trkpt>
      <trkpt lat="45.48326" lon="4.69506">
        <ele>649.51</ele>
        <time>2014-03-21T14:15:36Z</time>
      </trkpt>
      <trkpt lat="45.48311" lon="4.69511">
        <ele>648.55</ele>
        <time>2014-03-21T14:15:50Z</time>
      </trkpt>
      <trkpt lat="45.48294" lon="4.6952">
        <ele>649.99</ele>
        <time>2014-03-21T14:16:07Z</time>
      </trkpt>
      <trkpt lat="45.4828" lon="4.69532">
        <ele>648.07</ele>
        <time>2014-03-21T14:16:21Z</time>
      </trkpt>
      <trkpt lat="45.48277" lon="4.69535">
        <ele>648.07</ele>
        <time>2014-03-21T14:16:24Z</time>
      </trkpt>
      <trkpt lat="45.48269" lon="4.69543">
        <ele>646.14</ele>
        <time>2014-03-21T14:16:34Z</time>
      </trkpt>
      <trkpt lat="45.48252" lon="4.69557">
        <ele>646.14</ele>
        <time>2014-03-21T14:16:51Z</time>
      </trkpt>
      <trkpt lat="45.48235" lon="4.69574">
        <ele>643.26</ele>
        <time>2014-03-21T14:17:09Z</time>
      </trkpt>
      <trkpt lat="45.48218" lon="4.69594">
        <ele>642.78</ele>
        <time>2014-03-21T14:17:28Z</time>
      </trkpt>
      <trkpt lat="45.48198" lon="4.69612">
        <ele>641.82</ele>
        <time>2014-03-21T14:17:46Z</time>
      </trkpt>
      <trkpt lat="45.4818" lon="4.69629">
        <ele>640.86</ele>
        <time>2014-03-21T14:18:03Z</time>
      </trkpt>
      <trkpt lat="45.48161" lon="4.69645">
        <ele>640.86</ele>
        <time>2014-03-21T14:18:21Z</time>
      </trkpt>
      <trkpt lat="45.48147" lon="4.6966">
        <ele>640.86</ele>
        <time>2014-03-21T14:18:35Z</time>
      </trkpt>
      <trkpt lat="45.48133" lon="4.69677">
        <ele>641.34</ele>
        <time>2014-03-21T14:18:50Z</time>
      </trkpt>
      <trkpt lat="45.48116" lon="4.69696">
        <ele>637.97</ele>
        <time>2014-03-21T14:19:08Z</time>
      </trkpt>
      <trkpt lat="45.48103" lon="4.69715">
        <ele>638.45</ele>
        <time>2014-03-21T14:19:23Z</time>
      </trkpt>
      <trkpt lat="45.48103" lon="4.69716">
        <ele>638.45</ele>
        <time>2014-03-21T14:19:24Z</time>
      </trkpt>
      <trkpt lat="45.48099" lon="4.69722">
        <ele>637.01</ele>
        <time>2014-03-21T14:19:29Z</time>
      </trkpt>
      <trkpt lat="45.48091" lon="4.69743">
        <ele>634.61</ele>
        <time>2014-03-21T14:19:43Z</time>
      </trkpt>
      <trkpt lat="45.48087" lon="4.69752">
        <ele>633.17</ele>
        <time>2014-03-21T14:19:51Z</time>
      </trkpt>
      <trkpt lat="45.48083" lon="4.69777">
        <ele>631.72</ele>
        <time>2014-03-21T14:20:08Z</time>
      </trkpt>
      <trkpt lat="45.48083" lon="4.6978">
        <ele>631.72</ele>
        <time>2014-03-21T14:20:10Z</time>
      </trkpt>
      <trkpt lat="45.48082" lon="4.69792">
        <ele>628.36</ele>
        <time>2014-03-21T14:20:18Z</time>
      </trkpt>
      <trkpt lat="45.48084" lon="4.69813">
        <ele>627.88</ele>
        <time>2014-03-21T14:20:31Z</time>
      </trkpt>
      <trkpt lat="45.48088" lon="4.69836">
        <ele>625.96</ele>
        <time>2014-03-21T14:20:47Z</time>
      </trkpt>
      <trkpt lat="45.48087" lon="4.69838">
        <ele>625.96</ele>
        <time>2014-03-21T14:21:00Z</time>
      </trkpt>
      <trkpt lat="45.48086" lon="4.69838">
        <ele>625.96</ele>
        <time>2014-03-21T14:21:19Z</time>
      </trkpt>
      <trkpt lat="45.48084" lon="4.69846">
        <ele>625.96</ele>
        <time>2014-03-21T14:21:47Z</time>
      </trkpt>
      <trkpt lat="45.4808" lon="4.69845">
        <ele>626.44</ele>
        <time>2014-03-21T14:22:13Z</time>
      </trkpt>
      <trkpt lat="45.4808" lon="4.6985">
        <ele>624.99</ele>
        <time>2014-03-21T14:22:44Z</time>
      </trkpt>
      <trkpt lat="45.48079" lon="4.69847">
        <ele>625.47</ele>
        <time>2014-03-21T14:23:20Z</time>
      </trkpt>
      <trkpt lat="45.48086" lon="4.69848">
        <ele>625.96</ele>
        <time>2014-03-21T14:23:44Z</time>
      </trkpt>
      <trkpt lat="45.48083" lon="4.69858">
        <ele>625.47</ele>
        <time>2014-03-21T14:23:58Z</time>
      </trkpt>
      <trkpt lat="45.48075" lon="4.69865">
        <ele>625.96</ele>
        <time>2014-03-21T14:24:08Z</time>
      </trkpt>
      <trkpt lat="45.48054" lon="4.69862">
        <ele>625.96</ele>
        <time>2014-03-21T14:24:25Z</time>
      </trkpt>
      <trkpt lat="45.48038" lon="4.69855">
        <ele>625.96</ele>
        <time>2014-03-21T14:24:40Z</time>
      </trkpt>
      <trkpt lat="45.48018" lon="4.69844">
        <ele>625.96</ele>
        <time>2014-03-21T14:24:58Z</time>
      </trkpt>
      <trkpt lat="45.48002" lon="4.69828">
        <ele>626.44</ele>
        <time>2014-03-21T14:25:14Z</time>
      </trkpt>
      <trkpt lat="45.47995" lon="4.69822">
        <ele>626.92</ele>
        <time>2014-03-21T14:25:21Z</time>
      </trkpt>
      <trkpt lat="45.47977" lon="4.69806">
        <ele>626.92</ele>
        <time>2014-03-21T14:25:38Z</time>
      </trkpt>
      <trkpt lat="45.47964" lon="4.69793">
        <ele>627.4</ele>
        <time>2014-03-21T14:25:52Z</time>
      </trkpt>
      <trkpt lat="45.47946" lon="4.69775">
        <ele>628.84</ele>
        <time>2014-03-21T14:26:09Z</time>
      </trkpt>
      <trkpt lat="45.47929" lon="4.69763">
        <ele>628.84</ele>
        <time>2014-03-21T14:26:25Z</time>
      </trkpt>
      <trkpt lat="45.47911" lon="4.69753">
        <ele>629.32</ele>
        <time>2014-03-21T14:26:41Z</time>
      </trkpt>
      <trkpt lat="45.47891" lon="4.69744">
        <ele>629.8</ele>
        <time>2014-03-21T14:26:58Z</time>
      </trkpt>
      <trkpt lat="45.4788" lon="4.6974">
        <ele>629.8</ele>
        <time>2014-03-21T14:27:07Z</time>
      </trkpt>
      <trkpt lat="45.47863" lon="4.69734">
        <ele>628.84</ele>
        <time>2014-03-21T14:27:23Z</time>
      </trkpt>
      <trkpt lat="45.47844" lon="4.69726">
        <ele>629.8</ele>
        <time>2014-03-21T14:27:39Z</time>
      </trkpt>
      <trkpt lat="45.47841" lon="4.69725">
        <ele>630.28</ele>
        <time>2014-03-21T14:27:42Z</time>
      </trkpt>
      <trkpt lat="45.47821" lon="4.69719">
        <ele>630.28</ele>
        <time>2014-03-21T14:27:59Z</time>
      </trkpt>
      <trkpt lat="45.47816" lon="4.69718">
        <ele>629.8</ele>
        <time>2014-03-21T14:28:03Z</time>
      </trkpt>
      <trkpt lat="45.47798" lon="4.69717">
        <ele>629.32</ele>
        <time>2014-03-21T14:28:19Z</time>
      </trkpt>
      <trkpt lat="45.4778" lon="4.69717">
        <ele>630.76</ele>
        <time>2014-03-21T14:28:34Z</time>
      </trkpt>
      <trkpt lat="45.47775" lon="4.69716">
        <ele>630.28</ele>
        <time>2014-03-21T14:28:39Z</time>
      </trkpt>
      <trkpt lat="45.47767" lon="4.69715">
        <ele>630.28</ele>
        <time>2014-03-21T14:28:46Z</time>
      </trkpt>
      <trkpt lat="45.47747" lon="4.69716">
        <ele>629.32</ele>
        <time>2014-03-21T14:29:03Z</time>
      </trkpt>
      <trkpt lat="45.47745" lon="4.69716">
        <ele>630.28</ele>
        <time>2014-03-21T14:29:05Z</time>
      </trkpt>
      <trkpt lat="45.47725" lon="4.69719">
        <ele>629.32</ele>
        <time>2014-03-21T14:29:23Z</time>
      </trkpt>
      <trkpt lat="45.47706" lon="4.69723">
        <ele>629.8</ele>
        <time>2014-03-21T14:29:40Z</time>
      </trkpt>
      <trkpt lat="45.47692" lon="4.69725">
        <ele>630.28</ele>
        <time>2014-03-21T14:29:52Z</time>
      </trkpt>
      <trkpt lat="45.47689" lon="4.69719">
        <ele>630.28</ele>
        <time>2014-03-21T14:29:57Z</time>
      </trkpt>
      <trkpt lat="45.4769" lon="4.69713">
        <ele>629.8</ele>
        <time>2014-03-21T14:30:01Z</time>
      </trkpt>
      <trkpt lat="45.477" lon="4.69701">
        <ele>629.32</ele>
        <time>2014-03-21T14:30:18Z</time>
      </trkpt>
      <trkpt lat="45.47713" lon="4.69692">
        <ele>628.36</ele>
        <time>2014-03-21T14:30:37Z</time>
      </trkpt>
      <trkpt lat="45.47713" lon="4.69694">
        <ele>628.36</ele>
        <time>2014-03-21T14:31:07Z</time>
      </trkpt>
      <trkpt lat="45.4771" lon="4.69691">
        <ele>628.36</ele>
        <time>2014-03-21T14:31:21Z</time>
      </trkpt>
      <trkpt lat="45.47714" lon="4.69693">
        <ele>628.36</ele>
        <time>2014-03-21T14:31:34Z</time>
      </trkpt>
      <trkpt lat="45.47715" lon="4.69693">
        <ele>628.84</ele>
        <time>2014-03-21T14:31:50Z</time>
      </trkpt>
      <trkpt lat="45.47713" lon="4.69693">
        <ele>628.36</ele>
        <time>2014-03-21T14:32:08Z</time>
      </trkpt>
      <trkpt lat="45.47718" lon="4.69691">
        <ele>628.36</ele>
        <time>2014-03-21T14:32:20Z</time>
      </trkpt>
      <trkpt lat="45.47724" lon="4.69684">
        <ele>627.4</ele>
        <time>2014-03-21T14:32:32Z</time>
      </trkpt>
      <trkpt lat="45.47728" lon="4.69678">
        <ele>626.92</ele>
        <time>2014-03-21T14:32:38Z</time>
      </trkpt>
      <trkpt lat="45.47735" lon="4.69671">
        <ele>626.44</ele>
        <time>2014-03-21T14:32:46Z</time>
      </trkpt>
      <trkpt lat="45.47739" lon="4.69665">
        <ele>625.47</ele>
        <time>2014-03-21T14:32:52Z</time>
      </trkpt>
      <trkpt lat="45.47742" lon="4.69663">
        <ele>625.47</ele>
        <time>2014-03-21T14:32:55Z</time>
      </trkpt>
      <trkpt lat="45.47754" lon="4.69648">
        <ele>624.99</ele>
        <time>2014-03-21T14:33:11Z</time>
      </trkpt>
      <trkpt lat="45.47761" lon="4.69643">
        <ele>623.55</ele>
        <time>2014-03-21T14:33:26Z</time>
      </trkpt>
      <trkpt lat="45.47768" lon="4.69634">
        <ele>623.07</ele>
        <time>2014-03-21T14:33:36Z</time>
      </trkpt>
      <trkpt lat="45.4777" lon="4.69633">
        <ele>622.59</ele>
        <time>2014-03-21T14:33:38Z</time>
      </trkpt>
      <trkpt lat="45.47783" lon="4.69621">
        <ele>620.19</ele>
        <time>2014-03-21T14:33:54Z</time>
      </trkpt>
      <trkpt lat="45.47797" lon="4.69607">
        <ele>618.75</ele>
        <time>2014-03-21T14:34:09Z</time>
      </trkpt>
      <trkpt lat="45.47808" lon="4.69592">
        <ele>616.82</ele>
        <time>2014-03-21T14:34:26Z</time>
      </trkpt>
      <trkpt lat="45.47817" lon="4.69579">
        <ele>615.86</ele>
        <time>2014-03-21T14:34:41Z</time>
      </trkpt>
      <trkpt lat="45.47831" lon="4.69553">
        <ele>614.42</ele>
        <time>2014-03-21T14:34:57Z</time>
      </trkpt>
      <trkpt lat="45.47842" lon="4.69531">
        <ele>612.98</ele>
        <time>2014-03-21T14:35:14Z</time>
      </trkpt>
      <trkpt lat="45.4785" lon="4.69513">
        <ele>611.06</ele>
        <time>2014-03-21T14:35:30Z</time>
      </trkpt>
      <trkpt lat="45.47857" lon="4.69496">
        <ele>608.65</ele>
        <time>2014-03-21T14:35:45Z</time>
      </trkpt>
      <trkpt lat="45.47864" lon="4.69476">
        <ele>605.29</ele>
        <time>2014-03-21T14:35:58Z</time>
      </trkpt>
      <trkpt lat="45.47869" lon="4.69465">
        <ele>604.81</ele>
        <time>2014-03-21T14:36:06Z</time>
      </trkpt>
      <trkpt lat="45.47875" lon="4.69445">
        <ele>600.96</ele>
        <time>2014-03-21T14:36:18Z</time>
      </trkpt>
      <trkpt lat="45.47883" lon="4.69425">
        <ele>599.52</ele>
        <time>2014-03-21T14:36:33Z</time>
      </trkpt>
      <trkpt lat="45.47889" lon="4.6941">
        <ele>597.6</ele>
        <time>2014-03-21T14:36:46Z</time>
      </trkpt>
      <trkpt lat="45.47893" lon="4.69403">
        <ele>596.15</ele>
        <time>2014-03-21T14:36:53Z</time>
      </trkpt>
      <trkpt lat="45.479" lon="4.69386">
        <ele>594.71</ele>
        <time>2014-03-21T14:37:08Z</time>
      </trkpt>
      <trkpt lat="45.47907" lon="4.6937">
        <ele>591.83</ele>
        <time>2014-03-21T14:37:23Z</time>
      </trkpt>
      <trkpt lat="45.47915" lon="4.69359">
        <ele>589.43</ele>
        <time>2014-03-21T14:37:36Z</time>
      </trkpt>
      <trkpt lat="45.4792" lon="4.6934">
        <ele>587.02</ele>
        <time>2014-03-21T14:37:52Z</time>
      </trkpt>
      <trkpt lat="45.47925" lon="4.69326">
        <ele>584.62</ele>
        <time>2014-03-21T14:38:05Z</time>
      </trkpt>
      <trkpt lat="45.47933" lon="4.69298">
        <ele>581.73</ele>
        <time>2014-03-21T14:38:18Z</time>
      </trkpt>
      <trkpt lat="45.47935" lon="4.69296">
        <ele>581.25</ele>
        <time>2014-03-21T14:38:20Z</time>
      </trkpt>
      <trkpt lat="45.4794" lon="4.69287">
        <ele>579.33</ele>
        <time>2014-03-21T14:38:31Z</time>
      </trkpt>
      <trkpt lat="45.47949" lon="4.69275">
        <ele>578.85</ele>
        <time>2014-03-21T14:38:45Z</time>
      </trkpt>
      <trkpt lat="45.47955" lon="4.69259">
        <ele>578.85</ele>
        <time>2014-03-21T14:38:59Z</time>
      </trkpt>
      <trkpt lat="45.47961" lon="4.6924">
        <ele>578.85</ele>
        <time>2014-03-21T14:39:14Z</time>
      </trkpt>
      <trkpt lat="45.47958" lon="4.69216">
        <ele>578.37</ele>
        <time>2014-03-21T14:39:29Z</time>
      </trkpt>
      <trkpt lat="45.47953" lon="4.69191">
        <ele>577.89</ele>
        <time>2014-03-21T14:39:49Z</time>
      </trkpt>
      <trkpt lat="45.47951" lon="4.69157">
        <ele>577.89</ele>
        <time>2014-03-21T14:40:08Z</time>
      </trkpt>
      <trkpt lat="45.47953" lon="4.69135">
        <ele>577.41</ele>
        <time>2014-03-21T14:40:23Z</time>
      </trkpt>
      <trkpt lat="45.47958" lon="4.69112">
        <ele>575.97</ele>
        <time>2014-03-21T14:40:38Z</time>
      </trkpt>
      <trkpt lat="45.47964" lon="4.69093">
        <ele>574.04</ele>
        <time>2014-03-21T14:40:53Z</time>
      </trkpt>
      <trkpt lat="45.47972" lon="4.69076">
        <ele>573.08</ele>
        <time>2014-03-21T14:41:06Z</time>
      </trkpt>
      <trkpt lat="45.47981" lon="4.69063">
        <ele>572.6</ele>
        <time>2014-03-21T14:41:19Z</time>
      </trkpt>
      <trkpt lat="45.47984" lon="4.69046">
        <ele>574.04</ele>
        <time>2014-03-21T14:41:36Z</time>
      </trkpt>
      <trkpt lat="45.47989" lon="4.69041">
        <ele>574.04</ele>
        <time>2014-03-21T14:41:54Z</time>
      </trkpt>
      <trkpt lat="45.47992" lon="4.69043">
        <ele>573.56</ele>
        <time>2014-03-21T14:42:22Z</time>
      </trkpt>
      <trkpt lat="45.47986" lon="4.69037">
        <ele>573.56</ele>
        <time>2014-03-21T14:42:52Z</time>
      </trkpt>
      <trkpt lat="45.47987" lon="4.69044">
        <ele>574.04</ele>
        <time>2014-03-21T14:43:17Z</time>
      </trkpt>
      <trkpt lat="45.47989" lon="4.69046">
        <ele>573.08</ele>
        <time>2014-03-21T14:43:43Z</time>
      </trkpt>
      <trkpt lat="45.47984" lon="4.6905">
        <ele>573.08</ele>
        <time>2014-03-21T14:44:03Z</time>
      </trkpt>
      <trkpt lat="45.47986" lon="4.69026">
        <ele>575.01</ele>
        <time>2014-03-21T14:44:20Z</time>
      </trkpt>
      <trkpt lat="45.47987" lon="4.69008">
        <ele>576.93</ele>
        <time>2014-03-21T14:44:35Z</time>
      </trkpt>
      <trkpt lat="45.47988" lon="4.68989">
        <ele>577.41</ele>
        <time>2014-03-21T14:44:50Z</time>
      </trkpt>
      <trkpt lat="45.47991" lon="4.68965">
        <ele>576.45</ele>
        <time>2014-03-21T14:45:05Z</time>
      </trkpt>
      <trkpt lat="45.47995" lon="4.68946">
        <ele>575.01</ele>
        <time>2014-03-21T14:45:20Z</time>
      </trkpt>
      <trkpt lat="45.47997" lon="4.68927">
        <ele>574.04</ele>
        <time>2014-03-21T14:45:34Z</time>
      </trkpt>
      <trkpt lat="45.48002" lon="4.68907">
        <ele>572.6</ele>
        <time>2014-03-21T14:45:50Z</time>
      </trkpt>
      <trkpt lat="45.48005" lon="4.68888">
        <ele>571.16</ele>
        <time>2014-03-21T14:46:06Z</time>
      </trkpt>
      <trkpt lat="45.48006" lon="4.68885">
        <ele>570.68</ele>
        <time>2014-03-21T14:46:08Z</time>
      </trkpt>
      <trkpt lat="45.48009" lon="4.68868">
        <ele>568.76</ele>
        <time>2014-03-21T14:46:19Z</time>
      </trkpt>
      <trkpt lat="45.48012" lon="4.68859">
        <ele>569.24</ele>
        <time>2014-03-21T14:46:26Z</time>
      </trkpt>
      <trkpt lat="45.48015" lon="4.6883">
        <ele>568.76</ele>
        <time>2014-03-21T14:46:42Z</time>
      </trkpt>
      <trkpt lat="45.48021" lon="4.68808">
        <ele>568.76</ele>
        <time>2014-03-21T14:46:56Z</time>
      </trkpt>
      <trkpt lat="45.4803" lon="4.6878">
        <ele>569.72</ele>
        <time>2014-03-21T14:47:15Z</time>
      </trkpt>
      <trkpt lat="45.48032" lon="4.68771">
        <ele>570.2</ele>
        <time>2014-03-21T14:47:21Z</time>
      </trkpt>
      <trkpt lat="45.48038" lon="4.68746">
        <ele>570.2</ele>
        <time>2014-03-21T14:47:37Z</time>
      </trkpt>
      <trkpt lat="45.48046" lon="4.6872">
        <ele>571.16</ele>
        <time>2014-03-21T14:47:53Z</time>
      </trkpt>
      <trkpt lat="45.48057" lon="4.68701">
        <ele>571.64</ele>
        <time>2014-03-21T14:48:08Z</time>
      </trkpt>
      <trkpt lat="45.4806" lon="4.68695">
        <ele>571.64</ele>
        <time>2014-03-21T14:48:12Z</time>
      </trkpt>
      <trkpt lat="45.48069" lon="4.68676">
        <ele>573.08</ele>
        <time>2014-03-21T14:48:27Z</time>
      </trkpt>
      <trkpt lat="45.48072" lon="4.68658">
        <ele>573.56</ele>
        <time>2014-03-21T14:48:41Z</time>
      </trkpt>
      <trkpt lat="45.48071" lon="4.68643">
        <ele>573.56</ele>
        <time>2014-03-21T14:48:53Z</time>
      </trkpt>
      <trkpt lat="45.48069" lon="4.68634">
        <ele>573.56</ele>
        <time>2014-03-21T14:48:59Z</time>
      </trkpt>
      <trkpt lat="45.48068" lon="4.68617">
        <ele>572.12</ele>
        <time>2014-03-21T14:49:09Z</time>
      </trkpt>
      <trkpt lat="45.48068" lon="4.6861">
        <ele>571.64</ele>
        <time>2014-03-21T14:49:13Z</time>
      </trkpt>
      <trkpt lat="45.48069" lon="4.68579">
        <ele>569.24</ele>
        <time>2014-03-21T14:49:32Z</time>
      </trkpt>
      <trkpt lat="45.48069" lon="4.68549">
        <ele>567.32</ele>
        <time>2014-03-21T14:49:50Z</time>
      </trkpt>
      <trkpt lat="45.48067" lon="4.68522">
        <ele>567.32</ele>
        <time>2014-03-21T14:50:08Z</time>
      </trkpt>
      <trkpt lat="45.48063" lon="4.685">
        <ele>566.35</ele>
        <time>2014-03-21T14:50:23Z</time>
      </trkpt>
      <trkpt lat="45.48056" lon="4.6847">
        <ele>565.39</ele>
        <time>2014-03-21T14:50:43Z</time>
      </trkpt>
      <trkpt lat="45.4805" lon="4.68439">
        <ele>563.47</ele>
        <time>2014-03-21T14:51:03Z</time>
      </trkpt>
      <trkpt lat="45.4805" lon="4.68434">
        <ele>562.99</ele>
        <time>2014-03-21T14:51:06Z</time>
      </trkpt>
      <trkpt lat="45.48047" lon="4.68405">
        <ele>561.07</ele>
        <time>2014-03-21T14:51:24Z</time>
      </trkpt>
      <trkpt lat="45.48046" lon="4.6839">
        <ele>559.14</ele>
        <time>2014-03-21T14:51:40Z</time>
      </trkpt>
      <trkpt lat="45.48043" lon="4.68361">
        <ele>557.7</ele>
        <time>2014-03-21T14:51:59Z</time>
      </trkpt>
      <trkpt lat="45.48041" lon="4.68341">
        <ele>556.74</ele>
        <time>2014-03-21T14:52:10Z</time>
      </trkpt>
      <trkpt lat="45.48041" lon="4.68334">
        <ele>556.26</ele>
        <time>2014-03-21T14:52:14Z</time>
      </trkpt>
      <trkpt lat="45.48042" lon="4.68311">
        <ele>553.86</ele>
        <time>2014-03-21T14:52:32Z</time>
      </trkpt>
      <trkpt lat="45.48039" lon="4.68307">
        <ele>553.38</ele>
        <time>2014-03-21T14:52:51Z</time>
      </trkpt>
      <trkpt lat="45.48038" lon="4.68303">
        <ele>552.9</ele>
        <time>2014-03-21T14:53:04Z</time>
      </trkpt>
      <trkpt lat="45.48041" lon="4.68305">
        <ele>552.41</ele>
        <time>2014-03-21T14:53:20Z</time>
      </trkpt>
      <trkpt lat="45.48043" lon="4.68308">
        <ele>553.38</ele>
        <time>2014-03-21T14:53:34Z</time>
      </trkpt>
      <trkpt lat="45.48042" lon="4.68304">
        <ele>553.38</ele>
        <time>2014-03-21T14:53:54Z</time>
      </trkpt>
      <trkpt lat="45.4804" lon="4.68306">
        <ele>552.9</ele>
        <time>2014-03-21T14:54:13Z</time>
      </trkpt>
      <trkpt lat="45.48044" lon="4.68306">
        <ele>552.9</ele>
        <time>2014-03-21T14:54:35Z</time>
      </trkpt>
      <trkpt lat="45.48042" lon="4.68307">
        <ele>553.38</ele>
        <time>2014-03-21T14:54:56Z</time>
      </trkpt>
      <trkpt lat="45.48045" lon="4.68309">
        <ele>552.9</ele>
        <time>2014-03-21T14:54:59Z</time>
      </trkpt>
      <trkpt lat="45.48048" lon="4.6831">
        <ele>551.93</ele>
        <time>2014-03-21T14:55:02Z</time>
      </trkpt>
      <trkpt lat="45.48049" lon="4.68313">
        <ele>552.9</ele>
        <time>2014-03-21T14:55:25Z</time>
      </trkpt>
      <trkpt lat="45.48038" lon="4.683">
        <ele>551.93</ele>
        <time>2014-03-21T14:55:48Z</time>
      </trkpt>
      <trkpt lat="45.48034" lon="4.68282">
        <ele>551.45</ele>
        <time>2014-03-21T14:56:14Z</time>
      </trkpt>
      <trkpt lat="45.48034" lon="4.68271">
        <ele>551.45</ele>
        <time>2014-03-21T14:56:35Z</time>
      </trkpt>
      <trkpt lat="45.48033" lon="4.68287">
        <ele>551.93</ele>
        <time>2014-03-21T14:57:01Z</time>
      </trkpt>
      <trkpt lat="45.48032" lon="4.68278">
        <ele>552.41</ele>
        <time>2014-03-21T14:57:23Z</time>
      </trkpt>
      <trkpt lat="45.48039" lon="4.68284">
        <ele>552.9</ele>
        <time>2014-03-21T14:57:41Z</time>
      </trkpt>
      <trkpt lat="45.48035" lon="4.68285">
        <ele>552.9</ele>
        <time>2014-03-21T14:58:06Z</time>
      </trkpt>
      <trkpt lat="45.48038" lon="4.68299">
        <ele>552.9</ele>
        <time>2014-03-21T14:58:33Z</time>
      </trkpt>
      <trkpt lat="45.48042" lon="4.68301">
        <ele>553.38</ele>
        <time>2014-03-21T14:58:59Z</time>
      </trkpt>
      <trkpt lat="45.48038" lon="4.68299">
        <ele>553.38</ele>
        <time>2014-03-21T14:59:25Z</time>
      </trkpt>
      <trkpt lat="45.4804" lon="4.68313">
        <ele>552.9</ele>
        <time>2014-03-21T14:59:49Z</time>
      </trkpt>
      <trkpt lat="45.48039" lon="4.683">
        <ele>553.86</ele>
        <time>2014-03-21T15:00:12Z</time>
      </trkpt>
      <trkpt lat="45.48041" lon="4.68297">
        <ele>554.82</ele>
        <time>2014-03-21T15:00:40Z</time>
      </trkpt>
      <trkpt lat="45.4804" lon="4.683">
        <ele>555.3</ele>
        <time>2014-03-21T15:01:06Z</time>
      </trkpt>
      <trkpt lat="45.48038" lon="4.68308">
        <ele>553.86</ele>
        <time>2014-03-21T15:01:35Z</time>
      </trkpt>
      <trkpt lat="45.48042" lon="4.68306">
        <ele>555.3</ele>
        <time>2014-03-21T15:01:59Z</time>
      </trkpt>
      <trkpt lat="45.48044" lon="4.68305">
        <ele>554.82</ele>
        <time>2014-03-21T15:02:14Z</time>
      </trkpt>
      <trkpt lat="45.48046" lon="4.6829">
        <ele>553.38</ele>
        <time>2014-03-21T15:02:28Z</time>
      </trkpt>
      <trkpt lat="45.48049" lon="4.68287">
        <ele>552.9</ele>
        <time>2014-03-21T15:02:38Z</time>
      </trkpt>
      <trkpt lat="45.4806" lon="4.68274">
        <ele>551.45</ele>
        <time>2014-03-21T15:02:55Z</time>
      </trkpt>
      <trkpt lat="45.48064" lon="4.68269">
        <ele>547.13</ele>
        <time>2014-03-21T15:03:02Z</time>
      </trkpt>
      <trkpt lat="45.48069" lon="4.68263">
        <ele>548.09</ele>
        <time>2014-03-21T15:03:22Z</time>
      </trkpt>
      <trkpt lat="45.48051" lon="4.68249">
        <ele>545.69</ele>
        <time>2014-03-21T15:03:47Z</time>
      </trkpt>
      <trkpt lat="45.4804" lon="4.68238">
        <ele>543.28</ele>
        <time>2014-03-21T15:04:00Z</time>
      </trkpt>
      <trkpt lat="45.48035" lon="4.68233">
        <ele>542.32</ele>
        <time>2014-03-21T15:04:07Z</time>
      </trkpt>
      <trkpt lat="45.48033" lon="4.68231">
        <ele>541.84</ele>
        <time>2014-03-21T15:04:09Z</time>
      </trkpt>
      <trkpt lat="45.48021" lon="4.68215">
        <ele>540.88</ele>
        <time>2014-03-21T15:04:24Z</time>
      </trkpt>
      <trkpt lat="45.48019" lon="4.68213">
        <ele>539.44</ele>
        <time>2014-03-21T15:04:26Z</time>
      </trkpt>
      <trkpt lat="45.48011" lon="4.68203">
        <ele>539.92</ele>
        <time>2014-03-21T15:04:37Z</time>
      </trkpt>
      <trkpt lat="45.48009" lon="4.68201">
        <ele>538.48</ele>
        <time>2014-03-21T15:04:39Z</time>
      </trkpt>
      <trkpt lat="45.47999" lon="4.68194">
        <ele>537.51</ele>
        <time>2014-03-21T15:04:48Z</time>
      </trkpt>
      <trkpt lat="45.47987" lon="4.68177">
        <ele>536.55</ele>
        <time>2014-03-21T15:05:03Z</time>
      </trkpt>
      <trkpt lat="45.47983" lon="4.68158">
        <ele>536.07</ele>
        <time>2014-03-21T15:05:15Z</time>
      </trkpt>
      <trkpt lat="45.47989" lon="4.68131">
        <ele>536.55</ele>
        <time>2014-03-21T15:05:30Z</time>
      </trkpt>
      <trkpt lat="45.4799" lon="4.68119">
        <ele>536.07</ele>
        <time>2014-03-21T15:05:38Z</time>
      </trkpt>
      <trkpt lat="45.47998" lon="4.68093">
        <ele>536.55</ele>
        <time>2014-03-21T15:05:55Z</time>
      </trkpt>
      <trkpt lat="45.48002" lon="4.6807">
        <ele>535.11</ele>
        <time>2014-03-21T15:06:11Z</time>
      </trkpt>
      <trkpt lat="45.48006" lon="4.68063">
        <ele>535.59</ele>
        <time>2014-03-21T15:06:25Z</time>
      </trkpt>
      <trkpt lat="45.48009" lon="4.68055">
        <ele>535.59</ele>
        <time>2014-03-21T15:06:37Z</time>
      </trkpt>
      <trkpt lat="45.48013" lon="4.6804">
        <ele>535.11</ele>
        <time>2014-03-21T15:06:52Z</time>
      </trkpt>
      <trkpt lat="45.48014" lon="4.68036">
        <ele>535.11</ele>
        <time>2014-03-21T15:06:55Z</time>
      </trkpt>
      <trkpt lat="45.48021" lon="4.68014">
        <ele>536.55</ele>
        <time>2014-03-21T15:07:11Z</time>
      </trkpt>
      <trkpt lat="45.48018" lon="4.67984">
        <ele>536.55</ele>
        <time>2014-03-21T15:07:28Z</time>
      </trkpt>
      <trkpt lat="45.48015" lon="4.67967">
        <ele>537.03</ele>
        <time>2014-03-21T15:07:38Z</time>
      </trkpt>
      <trkpt lat="45.48005" lon="4.67946">
        <ele>538.48</ele>
        <time>2014-03-21T15:07:55Z</time>
      </trkpt>
      <trkpt lat="45.47994" lon="4.67929">
        <ele>537.99</ele>
        <time>2014-03-21T15:08:10Z</time>
      </trkpt>
      <trkpt lat="45.47982" lon="4.67913">
        <ele>538.96</ele>
        <time>2014-03-21T15:08:26Z</time>
      </trkpt>
      <trkpt lat="45.47969" lon="4.67898">
        <ele>539.92</ele>
        <time>2014-03-21T15:08:38Z</time>
      </trkpt>
      <trkpt lat="45.47953" lon="4.67882">
        <ele>540.4</ele>
        <time>2014-03-21T15:08:53Z</time>
      </trkpt>
      <trkpt lat="45.47944" lon="4.6787">
        <ele>541.36</ele>
        <time>2014-03-21T15:09:06Z</time>
      </trkpt>
      <trkpt lat="45.47936" lon="4.67861">
        <ele>541.84</ele>
        <time>2014-03-21T15:09:21Z</time>
      </trkpt>
      <trkpt lat="45.47916" lon="4.67842">
        <ele>543.28</ele>
        <time>2014-03-21T15:09:35Z</time>
      </trkpt>
      <trkpt lat="45.479" lon="4.67827">
        <ele>543.76</ele>
        <time>2014-03-21T15:09:50Z</time>
      </trkpt>
      <trkpt lat="45.47898" lon="4.6782">
        <ele>544.24</ele>
        <time>2014-03-21T15:09:59Z</time>
      </trkpt>
      <trkpt lat="45.47899" lon="4.67802">
        <ele>546.17</ele>
        <time>2014-03-21T15:10:11Z</time>
      </trkpt>
      <trkpt lat="45.47909" lon="4.67796">
        <ele>548.57</ele>
        <time>2014-03-21T15:10:26Z</time>
      </trkpt>
      <trkpt lat="45.47922" lon="4.67793">
        <ele>550.49</ele>
        <time>2014-03-21T15:10:43Z</time>
      </trkpt>
      <trkpt lat="45.47934" lon="4.67788">
        <ele>551.93</ele>
        <time>2014-03-21T15:10:56Z</time>
      </trkpt>
      <trkpt lat="45.47938" lon="4.67787">
        <ele>552.9</ele>
        <time>2014-03-21T15:11:01Z</time>
      </trkpt>
      <trkpt lat="45.47949" lon="4.67788">
        <ele>554.34</ele>
        <time>2014-03-21T15:11:14Z</time>
      </trkpt>
      <trkpt lat="45.47959" lon="4.67783">
        <ele>555.78</ele>
        <time>2014-03-21T15:11:26Z</time>
      </trkpt>
      <trkpt lat="45.4797" lon="4.67779">
        <ele>558.18</ele>
        <time>2014-03-21T15:11:39Z</time>
      </trkpt>
      <trkpt lat="45.47983" lon="4.6777">
        <ele>559.62</ele>
        <time>2014-03-21T15:11:52Z</time>
      </trkpt>
      <trkpt lat="45.47995" lon="4.67751">
        <ele>560.59</ele>
        <time>2014-03-21T15:12:09Z</time>
      </trkpt>
      <trkpt lat="45.4801" lon="4.67733">
        <ele>560.59</ele>
        <time>2014-03-21T15:12:27Z</time>
      </trkpt>
      <trkpt lat="45.48022" lon="4.67719">
        <ele>561.07</ele>
        <time>2014-03-21T15:12:44Z</time>
      </trkpt>
      <trkpt lat="45.48025" lon="4.67715">
        <ele>560.59</ele>
        <time>2014-03-21T15:12:58Z</time>
      </trkpt>
      <trkpt lat="45.48029" lon="4.67707">
        <ele>560.11</ele>
        <time>2014-03-21T15:13:10Z</time>
      </trkpt>
      <trkpt lat="45.48035" lon="4.67693">
        <ele>559.14</ele>
        <time>2014-03-21T15:13:26Z</time>
      </trkpt>
      <trkpt lat="45.48041" lon="4.67675">
        <ele>558.66</ele>
        <time>2014-03-21T15:13:43Z</time>
      </trkpt>
      <trkpt lat="45.48049" lon="4.67658">
        <ele>557.22</ele>
        <time>2014-03-21T15:14:02Z</time>
      </trkpt>
      <trkpt lat="45.48057" lon="4.67629">
        <ele>555.78</ele>
        <time>2014-03-21T15:14:25Z</time>
      </trkpt>
      <trkpt lat="45.48059" lon="4.67616">
        <ele>555.3</ele>
        <time>2014-03-21T15:14:34Z</time>
      </trkpt>
      <trkpt lat="45.48064" lon="4.6759">
        <ele>554.82</ele>
        <time>2014-03-21T15:14:52Z</time>
      </trkpt>
      <trkpt lat="45.4807" lon="4.67568">
        <ele>553.38</ele>
        <time>2014-03-21T15:15:07Z</time>
      </trkpt>
      <trkpt lat="45.48076" lon="4.6754">
        <ele>552.41</ele>
        <time>2014-03-21T15:15:25Z</time>
      </trkpt>
      <trkpt lat="45.48081" lon="4.6751">
        <ele>550.97</ele>
        <time>2014-03-21T15:15:44Z</time>
      </trkpt>
      <trkpt lat="45.48083" lon="4.67506">
        <ele>550.97</ele>
        <time>2014-03-21T15:15:48Z</time>
      </trkpt>
      <trkpt lat="45.48089" lon="4.6748">
        <ele>549.53</ele>
        <time>2014-03-21T15:16:06Z</time>
      </trkpt>
      <trkpt lat="45.48092" lon="4.67451">
        <ele>548.09</ele>
        <time>2014-03-21T15:16:24Z</time>
      </trkpt>
      <trkpt lat="45.48093" lon="4.67441">
        <ele>547.61</ele>
        <time>2014-03-21T15:16:30Z</time>
      </trkpt>
      <trkpt lat="45.48098" lon="4.6743">
        <ele>547.13</ele>
        <time>2014-03-21T15:16:38Z</time>
      </trkpt>
      <trkpt lat="45.48105" lon="4.674">
        <ele>545.69</ele>
        <time>2014-03-21T15:16:58Z</time>
      </trkpt>
      <trkpt lat="45.48108" lon="4.67386">
        <ele>545.2</ele>
        <time>2014-03-21T15:17:07Z</time>
      </trkpt>
      <trkpt lat="45.48116" lon="4.67358">
        <ele>543.28</ele>
        <time>2014-03-21T15:17:26Z</time>
      </trkpt>
      <trkpt lat="45.4812" lon="4.67342">
        <ele>542.8</ele>
        <time>2014-03-21T15:17:39Z</time>
      </trkpt>
      <trkpt lat="45.48129" lon="4.67321">
        <ele>542.32</ele>
        <time>2014-03-21T15:17:54Z</time>
      </trkpt>
      <trkpt lat="45.48138" lon="4.67298">
        <ele>541.84</ele>
        <time>2014-03-21T15:18:10Z</time>
      </trkpt>
      <trkpt lat="45.48154" lon="4.67278">
        <ele>542.8</ele>
        <time>2014-03-21T15:18:28Z</time>
      </trkpt>
      <trkpt lat="45.48169" lon="4.67254">
        <ele>541.84</ele>
        <time>2014-03-21T15:18:46Z</time>
      </trkpt>
      <trkpt lat="45.4818" lon="4.67232">
        <ele>541.36</ele>
        <time>2014-03-21T15:19:03Z</time>
      </trkpt>
      <trkpt lat="45.48186" lon="4.67205">
        <ele>541.36</ele>
        <time>2014-03-21T15:19:20Z</time>
      </trkpt>
      <trkpt lat="45.48189" lon="4.67181">
        <ele>540.4</ele>
        <time>2014-03-21T15:19:36Z</time>
      </trkpt>
      <trkpt lat="45.48186" lon="4.67153">
        <ele>540.88</ele>
        <time>2014-03-21T15:19:53Z</time>
      </trkpt>
      <trkpt lat="45.48187" lon="4.67126">
        <ele>539.44</ele>
        <time>2014-03-21T15:20:10Z</time>
      </trkpt>
      <trkpt lat="45.48194" lon="4.67099">
        <ele>539.44</ele>
        <time>2014-03-21T15:20:27Z</time>
      </trkpt>
      <trkpt lat="45.482" lon="4.67076">
        <ele>539.92</ele>
        <time>2014-03-21T15:20:43Z</time>
      </trkpt>
      <trkpt lat="45.48203" lon="4.67066">
        <ele>539.44</ele>
        <time>2014-03-21T15:20:56Z</time>
      </trkpt>
      <trkpt lat="45.48207" lon="4.67058">
        <ele>539.44</ele>
        <time>2014-03-21T15:21:01Z</time>
      </trkpt>
      <trkpt lat="45.48212" lon="4.67056">
        <ele>538.96</ele>
        <time>2014-03-21T15:21:05Z</time>
      </trkpt>
      <trkpt lat="45.48215" lon="4.67048">
        <ele>538.48</ele>
        <time>2014-03-21T15:21:10Z</time>
      </trkpt>
      <trkpt lat="45.48215" lon="4.67032">
        <ele>538.48</ele>
        <time>2014-03-21T15:21:22Z</time>
      </trkpt>
      <trkpt lat="45.48219" lon="4.67035">
        <ele>537.51</ele>
        <time>2014-03-21T15:21:33Z</time>
      </trkpt>
      <trkpt lat="45.48219" lon="4.67034">
        <ele>537.51</ele>
        <time>2014-03-21T15:21:47Z</time>
      </trkpt>
      <trkpt lat="45.4822" lon="4.67035">
        <ele>537.03</ele>
        <time>2014-03-21T15:22:08Z</time>
      </trkpt>
      <trkpt lat="45.48216" lon="4.67034">
        <ele>536.55</ele>
        <time>2014-03-21T15:22:36Z</time>
      </trkpt>
      <trkpt lat="45.48226" lon="4.67035">
        <ele>535.11</ele>
        <time>2014-03-21T15:22:51Z</time>
      </trkpt>
      <trkpt lat="45.4823" lon="4.67024">
        <ele>531.75</ele>
        <time>2014-03-21T15:23:06Z</time>
      </trkpt>
      <trkpt lat="45.48229" lon="4.67012">
        <ele>530.79</ele>
        <time>2014-03-21T15:23:15Z</time>
      </trkpt>
      <trkpt lat="45.48227" lon="4.67004">
        <ele>530.3</ele>
        <time>2014-03-21T15:23:20Z</time>
      </trkpt>
      <trkpt lat="45.48227" lon="4.66998">
        <ele>529.34</ele>
        <time>2014-03-21T15:23:26Z</time>
      </trkpt>
      <trkpt lat="45.48227" lon="4.66981">
        <ele>526.46</ele>
        <time>2014-03-21T15:23:42Z</time>
      </trkpt>
      <trkpt lat="45.48238" lon="4.66987">
        <ele>524.06</ele>
        <time>2014-03-21T15:23:59Z</time>
      </trkpt>
      <trkpt lat="45.48245" lon="4.66993">
        <ele>522.13</ele>
        <time>2014-03-21T15:24:08Z</time>
      </trkpt>
      <trkpt lat="45.48255" lon="4.67001">
        <ele>520.69</ele>
        <time>2014-03-21T15:24:22Z</time>
      </trkpt>
      <trkpt lat="45.48267" lon="4.67007">
        <ele>518.77</ele>
        <time>2014-03-21T15:24:36Z</time>
      </trkpt>
      <trkpt lat="45.48277" lon="4.67012">
        <ele>516.85</ele>
        <time>2014-03-21T15:24:47Z</time>
      </trkpt>
      <trkpt lat="45.48293" lon="4.6702">
        <ele>514.44</ele>
        <time>2014-03-21T15:25:01Z</time>
      </trkpt>
      <trkpt lat="45.48307" lon="4.67028">
        <ele>513</ele>
        <time>2014-03-21T15:25:16Z</time>
      </trkpt>
      <trkpt lat="45.48312" lon="4.6703">
        <ele>512.52</ele>
        <time>2014-03-21T15:25:22Z</time>
      </trkpt>
      <trkpt lat="45.48327" lon="4.67024">
        <ele>511.56</ele>
        <time>2014-03-21T15:25:37Z</time>
      </trkpt>
      <trkpt lat="45.48333" lon="4.6702">
        <ele>511.08</ele>
        <time>2014-03-21T15:25:43Z</time>
      </trkpt>
      <trkpt lat="45.48342" lon="4.67007">
        <ele>509.64</ele>
        <time>2014-03-21T15:25:55Z</time>
      </trkpt>
      <trkpt lat="45.48354" lon="4.66986">
        <ele>508.19</ele>
        <time>2014-03-21T15:26:12Z</time>
      </trkpt>
      <trkpt lat="45.48361" lon="4.66968">
        <ele>507.23</ele>
        <time>2014-03-21T15:26:26Z</time>
      </trkpt>
      <trkpt lat="45.48372" lon="4.66949">
        <ele>506.27</ele>
        <time>2014-03-21T15:26:42Z</time>
      </trkpt>
      <trkpt lat="45.48382" lon="4.66931">
        <ele>504.35</ele>
        <time>2014-03-21T15:26:57Z</time>
      </trkpt>
      <trkpt lat="45.48394" lon="4.66917">
        <ele>503.39</ele>
        <time>2014-03-21T15:27:12Z</time>
      </trkpt>
      <trkpt lat="45.48407" lon="4.66903">
        <ele>502.43</ele>
        <time>2014-03-21T15:27:28Z</time>
      </trkpt>
      <trkpt lat="45.48424" lon="4.66887">
        <ele>501.46</ele>
        <time>2014-03-21T15:27:44Z</time>
      </trkpt>
      <trkpt lat="45.48438" lon="4.66873">
        <ele>500.98</ele>
        <time>2014-03-21T15:28:01Z</time>
      </trkpt>
      <trkpt lat="45.48452" lon="4.6686">
        <ele>499.54</ele>
        <time>2014-03-21T15:28:17Z</time>
      </trkpt>
      <trkpt lat="45.48457" lon="4.66856">
        <ele>498.58</ele>
        <time>2014-03-21T15:28:22Z</time>
      </trkpt>
      <trkpt lat="45.4847" lon="4.66844">
        <ele>497.14</ele>
        <time>2014-03-21T15:28:35Z</time>
      </trkpt>
      <trkpt lat="45.48475" lon="4.6684">
        <ele>497.14</ele>
        <time>2014-03-21T15:28:39Z</time>
      </trkpt>
      <trkpt lat="45.48481" lon="4.66838">
        <ele>496.66</ele>
        <time>2014-03-21T15:28:44Z</time>
      </trkpt>
      <trkpt lat="45.48501" lon="4.66848">
        <ele>495.22</ele>
        <time>2014-03-21T15:29:02Z</time>
      </trkpt>
      <trkpt lat="45.48503" lon="4.66851">
        <ele>495.22</ele>
        <time>2014-03-21T15:29:04Z</time>
      </trkpt>
      <trkpt lat="45.48515" lon="4.66869">
        <ele>494.74</ele>
        <time>2014-03-21T15:29:18Z</time>
      </trkpt>
      <trkpt lat="45.48524" lon="4.66867">
        <ele>495.7</ele>
        <time>2014-03-21T15:29:32Z</time>
      </trkpt>
      <trkpt lat="45.48531" lon="4.66851">
        <ele>496.66</ele>
        <time>2014-03-21T15:29:47Z</time>
      </trkpt>
      <trkpt lat="45.48536" lon="4.66836">
        <ele>496.66</ele>
        <time>2014-03-21T15:29:57Z</time>
      </trkpt>
      <trkpt lat="45.48543" lon="4.66817">
        <ele>498.1</ele>
        <time>2014-03-21T15:30:10Z</time>
      </trkpt>
      <trkpt lat="45.48545" lon="4.6679">
        <ele>499.06</ele>
        <time>2014-03-21T15:30:25Z</time>
      </trkpt>
      <trkpt lat="45.48553" lon="4.66776">
        <ele>501.46</ele>
        <time>2014-03-21T15:30:39Z</time>
      </trkpt>
      <trkpt lat="45.48556" lon="4.66773">
        <ele>501.95</ele>
        <time>2014-03-21T15:30:43Z</time>
      </trkpt>
      <trkpt lat="45.48572" lon="4.66763">
        <ele>503.39</ele>
        <time>2014-03-21T15:30:57Z</time>
      </trkpt>
      <trkpt lat="45.48576" lon="4.6676">
        <ele>504.35</ele>
        <time>2014-03-21T15:31:01Z</time>
      </trkpt>
      <trkpt lat="45.48577" lon="4.66755">
        <ele>504.83</ele>
        <time>2014-03-21T15:31:05Z</time>
      </trkpt>
      <trkpt lat="45.48585" lon="4.6674">
        <ele>507.23</ele>
        <time>2014-03-21T15:31:19Z</time>
      </trkpt>
      <trkpt lat="45.48586" lon="4.66721">
        <ele>508.67</ele>
        <time>2014-03-21T15:31:33Z</time>
      </trkpt>
      <trkpt lat="45.48588" lon="4.66711">
        <ele>508.67</ele>
        <time>2014-03-21T15:31:45Z</time>
      </trkpt>
      <trkpt lat="45.48588" lon="4.66709">
        <ele>508.19</ele>
        <time>2014-03-21T15:31:46Z</time>
      </trkpt>
      <trkpt lat="45.48589" lon="4.66693">
        <ele>509.16</ele>
        <time>2014-03-21T15:31:59Z</time>
      </trkpt>
      <trkpt lat="45.4859" lon="4.66685">
        <ele>509.16</ele>
        <time>2014-03-21T15:32:06Z</time>
      </trkpt>
      <trkpt lat="45.48594" lon="4.66663">
        <ele>509.64</ele>
        <time>2014-03-21T15:32:23Z</time>
      </trkpt>
      <trkpt lat="45.48595" lon="4.66661">
        <ele>509.16</ele>
        <time>2014-03-21T15:32:25Z</time>
      </trkpt>
      <trkpt lat="45.48596" lon="4.66642">
        <ele>510.6</ele>
        <time>2014-03-21T15:32:37Z</time>
      </trkpt>
      <trkpt lat="45.48597" lon="4.66631">
        <ele>511.08</ele>
        <time>2014-03-21T15:32:44Z</time>
      </trkpt>
      <trkpt lat="45.48598" lon="4.66625">
        <ele>511.56</ele>
        <time>2014-03-21T15:32:48Z</time>
      </trkpt>
      <trkpt lat="45.48599" lon="4.66621">
        <ele>512.04</ele>
        <time>2014-03-21T15:32:51Z</time>
      </trkpt>
      <trkpt lat="45.48604" lon="4.666">
        <ele>513.96</ele>
        <time>2014-03-21T15:33:06Z</time>
      </trkpt>
      <trkpt lat="45.4861" lon="4.6658">
        <ele>516.37</ele>
        <time>2014-03-21T15:33:21Z</time>
      </trkpt>
      <trkpt lat="45.48616" lon="4.66564">
        <ele>518.29</ele>
        <time>2014-03-21T15:33:35Z</time>
      </trkpt>
      <trkpt lat="45.48619" lon="4.66556">
        <ele>519.25</ele>
        <time>2014-03-21T15:33:45Z</time>
      </trkpt>
      <trkpt lat="45.48629" lon="4.66543">
        <ele>521.65</ele>
        <time>2014-03-21T15:34:00Z</time>
      </trkpt>
      <trkpt lat="45.48634" lon="4.66538">
        <ele>523.09</ele>
        <time>2014-03-21T15:34:06Z</time>
      </trkpt>
      <trkpt lat="45.48641" lon="4.66534">
        <ele>524.54</ele>
        <time>2014-03-21T15:34:15Z</time>
      </trkpt>
      <trkpt lat="45.48653" lon="4.66523">
        <ele>525.98</ele>
        <time>2014-03-21T15:34:29Z</time>
      </trkpt>
      <trkpt lat="45.48665" lon="4.66514">
        <ele>527.9</ele>
        <time>2014-03-21T15:34:46Z</time>
      </trkpt>
      <trkpt lat="45.48679" lon="4.66503">
        <ele>527.9</ele>
        <time>2014-03-21T15:35:02Z</time>
      </trkpt>
      <trkpt lat="45.48695" lon="4.66493">
        <ele>527.9</ele>
        <time>2014-03-21T15:35:18Z</time>
      </trkpt>
      <trkpt lat="45.48711" lon="4.66481">
        <ele>529.82</ele>
        <time>2014-03-21T15:35:35Z</time>
      </trkpt>
      <trkpt lat="45.48724" lon="4.66471">
        <ele>529.82</ele>
        <time>2014-03-21T15:35:50Z</time>
      </trkpt>
      <trkpt lat="45.48743" lon="4.66464">
        <ele>530.79</ele>
        <time>2014-03-21T15:36:08Z</time>
      </trkpt>
      <trkpt lat="45.48751" lon="4.66461">
        <ele>530.79</ele>
        <time>2014-03-21T15:36:15Z</time>
      </trkpt>
      <trkpt lat="45.48767" lon="4.66457">
        <ele>530.79</ele>
        <time>2014-03-21T15:36:32Z</time>
      </trkpt>
      <trkpt lat="45.4877" lon="4.66456">
        <ele>531.75</ele>
        <time>2014-03-21T15:36:48Z</time>
      </trkpt>
      <trkpt lat="45.48771" lon="4.66455">
        <ele>530.79</ele>
        <time>2014-03-21T15:37:13Z</time>
      </trkpt>
      <trkpt lat="45.48772" lon="4.66458">
        <ele>531.27</ele>
        <time>2014-03-21T15:37:39Z</time>
      </trkpt>
      <trkpt lat="45.48771" lon="4.66457">
        <ele>531.27</ele>
        <time>2014-03-21T15:38:04Z</time>
      </trkpt>
      <trkpt lat="45.48773" lon="4.66457">
        <ele>531.75</ele>
        <time>2014-03-21T15:38:29Z</time>
      </trkpt>
      <trkpt lat="45.48776" lon="4.66456">
        <ele>531.75</ele>
        <time>2014-03-21T15:38:58Z</time>
      </trkpt>
      <trkpt lat="45.48794" lon="4.66452">
        <ele>532.71</ele>
        <time>2014-03-21T15:39:15Z</time>
      </trkpt>
      <trkpt lat="45.48814" lon="4.66446">
        <ele>532.23</ele>
        <time>2014-03-21T15:39:33Z</time>
      </trkpt>
      <trkpt lat="45.48829" lon="4.66444">
        <ele>532.23</ele>
        <time>2014-03-21T15:39:49Z</time>
      </trkpt>
      <trkpt lat="45.4885" lon="4.66443">
        <ele>531.75</ele>
        <time>2014-03-21T15:40:05Z</time>
      </trkpt>
      <trkpt lat="45.48869" lon="4.66444">
        <ele>530.79</ele>
        <time>2014-03-21T15:40:21Z</time>
      </trkpt>
      <trkpt lat="45.48884" lon="4.66445">
        <ele>530.79</ele>
        <time>2014-03-21T15:40:35Z</time>
      </trkpt>
      <trkpt lat="45.48893" lon="4.66443">
        <ele>530.3</ele>
        <time>2014-03-21T15:40:43Z</time>
      </trkpt>
      <trkpt lat="45.48912" lon="4.66427">
        <ele>530.3</ele>
        <time>2014-03-21T15:40:59Z</time>
      </trkpt>
      <trkpt lat="45.48931" lon="4.66413">
        <ele>529.82</ele>
        <time>2014-03-21T15:41:16Z</time>
      </trkpt>
      <trkpt lat="45.48952" lon="4.664">
        <ele>529.82</ele>
        <time>2014-03-21T15:41:34Z</time>
      </trkpt>
      <trkpt lat="45.48978" lon="4.66387">
        <ele>529.34</ele>
        <time>2014-03-21T15:41:55Z</time>
      </trkpt>
      <trkpt lat="45.48998" lon="4.66381">
        <ele>529.82</ele>
        <time>2014-03-21T15:42:10Z</time>
      </trkpt>
      <trkpt lat="45.49021" lon="4.66373">
        <ele>529.82</ele>
        <time>2014-03-21T15:42:29Z</time>
      </trkpt>
      <trkpt lat="45.49044" lon="4.66367">
        <ele>529.82</ele>
        <time>2014-03-21T15:42:48Z</time>
      </trkpt>
      <trkpt lat="45.49064" lon="4.66367">
        <ele>529.34</ele>
        <time>2014-03-21T15:43:04Z</time>
      </trkpt>
      <trkpt lat="45.49075" lon="4.66366">
        <ele>530.3</ele>
        <time>2014-03-21T15:43:19Z</time>
      </trkpt>
      <trkpt lat="45.49075" lon="4.66366">
        <ele>530.3</ele>
        <time>2014-03-21T15:43:34Z</time>
      </trkpt>
      <trkpt lat="45.49094" lon="4.6637">
        <ele>530.79</ele>
        <time>2014-03-21T15:43:51Z</time>
      </trkpt>
      <trkpt lat="45.49114" lon="4.66374">
        <ele>530.79</ele>
        <time>2014-03-21T15:44:07Z</time>
      </trkpt>
      <trkpt lat="45.49141" lon="4.66382">
        <ele>531.75</ele>
        <time>2014-03-21T15:44:28Z</time>
      </trkpt>
      <trkpt lat="45.4916" lon="4.66388">
        <ele>532.71</ele>
        <time>2014-03-21T15:44:45Z</time>
      </trkpt>
      <trkpt lat="45.49181" lon="4.66394">
        <ele>533.67</ele>
        <time>2014-03-21T15:45:03Z</time>
      </trkpt>
      <trkpt lat="45.49203" lon="4.66398">
        <ele>534.15</ele>
        <time>2014-03-21T15:45:21Z</time>
      </trkpt>
      <trkpt lat="45.49224" lon="4.66404">
        <ele>534.15</ele>
        <time>2014-03-21T15:45:39Z</time>
      </trkpt>
      <trkpt lat="45.4924" lon="4.66408">
        <ele>534.15</ele>
        <time>2014-03-21T15:45:54Z</time>
      </trkpt>
      <trkpt lat="45.49251" lon="4.66413">
        <ele>534.63</ele>
        <time>2014-03-21T15:46:06Z</time>
      </trkpt>
      <trkpt lat="45.49261" lon="4.6641">
        <ele>534.63</ele>
        <time>2014-03-21T15:46:22Z</time>
      </trkpt>
      <trkpt lat="45.49263" lon="4.66411">
        <ele>534.63</ele>
        <time>2014-03-21T15:46:36Z</time>
      </trkpt>
      <trkpt lat="45.49262" lon="4.66413">
        <ele>534.15</ele>
        <time>2014-03-21T15:46:38Z</time>
      </trkpt>
      <trkpt lat="45.49262" lon="4.66441">
        <ele>534.15</ele>
        <time>2014-03-21T15:46:54Z</time>
      </trkpt>
      <trkpt lat="45.49259" lon="4.66454">
        <ele>534.15</ele>
        <time>2014-03-21T15:47:07Z</time>
      </trkpt>
      <trkpt lat="45.49256" lon="4.66477">
        <ele>534.63</ele>
        <time>2014-03-21T15:47:21Z</time>
      </trkpt>
      <trkpt lat="45.49253" lon="4.66489">
        <ele>535.59</ele>
        <time>2014-03-21T15:47:28Z</time>
      </trkpt>
      <trkpt lat="45.49251" lon="4.66495">
        <ele>535.59</ele>
        <time>2014-03-21T15:47:32Z</time>
      </trkpt>
      <trkpt lat="45.49249" lon="4.66527">
        <ele>536.55</ele>
        <time>2014-03-21T15:47:52Z</time>
      </trkpt>
      <trkpt lat="45.49249" lon="4.66554">
        <ele>537.99</ele>
        <time>2014-03-21T15:48:09Z</time>
      </trkpt>
      <trkpt lat="45.49246" lon="4.66577">
        <ele>538.96</ele>
        <time>2014-03-21T15:48:24Z</time>
      </trkpt>
      <trkpt lat="45.49244" lon="4.66588">
        <ele>540.4</ele>
        <time>2014-03-21T15:48:30Z</time>
      </trkpt>
      <trkpt lat="45.49241" lon="4.66619">
        <ele>541.84</ele>
        <time>2014-03-21T15:48:47Z</time>
      </trkpt>
      <trkpt lat="45.4924" lon="4.66632">
        <ele>543.28</ele>
        <time>2014-03-21T15:48:55Z</time>
      </trkpt>
      <trkpt lat="45.49241" lon="4.66656">
        <ele>544.72</ele>
        <time>2014-03-21T15:49:11Z</time>
      </trkpt>
      <trkpt lat="45.49241" lon="4.66682">
        <ele>547.13</ele>
        <time>2014-03-21T15:49:26Z</time>
      </trkpt>
      <trkpt lat="45.4924" lon="4.66706">
        <ele>548.57</ele>
        <time>2014-03-21T15:49:41Z</time>
      </trkpt>
      <trkpt lat="45.49241" lon="4.66732">
        <ele>551.93</ele>
        <time>2014-03-21T15:49:57Z</time>
      </trkpt>
      <trkpt lat="45.49241" lon="4.66758">
        <ele>553.86</ele>
        <time>2014-03-21T15:50:14Z</time>
      </trkpt>
      <trkpt lat="45.49241" lon="4.66782">
        <ele>557.22</ele>
        <time>2014-03-21T15:50:30Z</time>
      </trkpt>
      <trkpt lat="45.49241" lon="4.66788">
        <ele>557.7</ele>
        <time>2014-03-21T15:50:34Z</time>
      </trkpt>
      <trkpt lat="45.49237" lon="4.66812">
        <ele>560.59</ele>
        <time>2014-03-21T15:50:50Z</time>
      </trkpt>
      <trkpt lat="45.49237" lon="4.66814">
        <ele>561.07</ele>
        <time>2014-03-21T15:50:51Z</time>
      </trkpt>
      <trkpt lat="45.49234" lon="4.66829">
        <ele>562.99</ele>
        <time>2014-03-21T15:51:01Z</time>
      </trkpt>
      <trkpt lat="45.49234" lon="4.6684">
        <ele>563.47</ele>
        <time>2014-03-21T15:51:08Z</time>
      </trkpt>
      <trkpt lat="45.49233" lon="4.6685">
        <ele>563.95</ele>
        <time>2014-03-21T15:51:15Z</time>
      </trkpt>
      <trkpt lat="45.49232" lon="4.66871">
        <ele>565.87</ele>
        <time>2014-03-21T15:51:30Z</time>
      </trkpt>
      <trkpt lat="45.4923" lon="4.6688">
        <ele>567.8</ele>
        <time>2014-03-21T15:51:36Z</time>
      </trkpt>
      <trkpt lat="45.49226" lon="4.66903">
        <ele>570.2</ele>
        <time>2014-03-21T15:51:53Z</time>
      </trkpt>
      <trkpt lat="45.49219" lon="4.6693">
        <ele>572.6</ele>
        <time>2014-03-21T15:52:11Z</time>
      </trkpt>
      <trkpt lat="45.49217" lon="4.6693">
        <ele>572.6</ele>
        <time>2014-03-21T15:52:24Z</time>
      </trkpt>
      <trkpt lat="45.4921" lon="4.66952">
        <ele>574.04</ele>
        <time>2014-03-21T15:52:40Z</time>
      </trkpt>
      <trkpt lat="45.49199" lon="4.66975">
        <ele>575.01</ele>
        <time>2014-03-21T15:52:57Z</time>
      </trkpt>
      <trkpt lat="45.49191" lon="4.66999">
        <ele>576.93</ele>
        <time>2014-03-21T15:53:13Z</time>
      </trkpt>
      <trkpt lat="45.49183" lon="4.67022">
        <ele>580.29</ele>
        <time>2014-03-21T15:53:30Z</time>
      </trkpt>
      <trkpt lat="45.49174" lon="4.67041">
        <ele>582.22</ele>
        <time>2014-03-21T15:53:45Z</time>
      </trkpt>
      <trkpt lat="45.49165" lon="4.67062">
        <ele>584.62</ele>
        <time>2014-03-21T15:54:00Z</time>
      </trkpt>
      <trkpt lat="45.49156" lon="4.6708">
        <ele>585.1</ele>
        <time>2014-03-21T15:54:16Z</time>
      </trkpt>
      <trkpt lat="45.49156" lon="4.67081">
        <ele>585.58</ele>
        <time>2014-03-21T15:54:18Z</time>
      </trkpt>
      <trkpt lat="45.49159" lon="4.67082">
        <ele>587.02</ele>
        <time>2014-03-21T15:54:21Z</time>
      </trkpt>
      <trkpt lat="45.4916" lon="4.67084">
        <ele>587.02</ele>
        <time>2014-03-21T15:54:32Z</time>
      </trkpt>
      <trkpt lat="45.49168" lon="4.6709">
        <ele>587.98</ele>
        <time>2014-03-21T15:54:43Z</time>
      </trkpt>
      <trkpt lat="45.49175" lon="4.67094">
        <ele>587.5</ele>
        <time>2014-03-21T15:54:56Z</time>
      </trkpt>
      <trkpt lat="45.49173" lon="4.67093">
        <ele>587.5</ele>
        <time>2014-03-21T15:55:15Z</time>
      </trkpt>
      <trkpt lat="45.49174" lon="4.67091">
        <ele>587.5</ele>
        <time>2014-03-21T15:55:32Z</time>
      </trkpt>
      <trkpt lat="45.49177" lon="4.67093">
        <ele>587.98</ele>
        <time>2014-03-21T15:55:45Z</time>
      </trkpt>
      <trkpt lat="45.49176" lon="4.67094">
        <ele>587.02</ele>
        <time>2014-03-21T15:56:04Z</time>
      </trkpt>
      <trkpt lat="45.49177" lon="4.67093">
        <ele>587.5</ele>
        <time>2014-03-21T15:56:21Z</time>
      </trkpt>
      <trkpt lat="45.49178" lon="4.67092">
        <ele>587.02</ele>
        <time>2014-03-21T15:56:42Z</time>
      </trkpt>
      <trkpt lat="45.49176" lon="4.67092">
        <ele>587.98</ele>
        <time>2014-03-21T15:57:05Z</time>
      </trkpt>
      <trkpt lat="45.49174" lon="4.67092">
        <ele>587.98</ele>
        <time>2014-03-21T15:57:27Z</time>
      </trkpt>
      <trkpt lat="45.49175" lon="4.67092">
        <ele>587.98</ele>
        <time>2014-03-21T15:57:45Z</time>
      </trkpt>
      <trkpt lat="45.49174" lon="4.67091">
        <ele>587.5</ele>
        <time>2014-03-21T15:58:11Z</time>
      </trkpt>
      <trkpt lat="45.49176" lon="4.67091">
        <ele>587.98</ele>
        <time>2014-03-21T15:58:30Z</time>
      </trkpt>
      <trkpt lat="45.49179" lon="4.67094">
        <ele>587.5</ele>
        <time>2014-03-21T15:58:36Z</time>
      </trkpt>
      <trkpt lat="45.49199" lon="4.67115">
        <ele>587.98</ele>
        <time>2014-03-21T15:58:55Z</time>
      </trkpt>
      <trkpt lat="45.49216" lon="4.67137">
        <ele>588.95</ele>
        <time>2014-03-21T15:59:09Z</time>
      </trkpt>
      <trkpt lat="45.49231" lon="4.67155">
        <ele>587.5</ele>
        <time>2014-03-21T15:59:26Z</time>
      </trkpt>
      <trkpt lat="45.4925" lon="4.67178">
        <ele>587.98</ele>
        <time>2014-03-21T15:59:46Z</time>
      </trkpt>
      <trkpt lat="45.49262" lon="4.67185">
        <ele>588.46</ele>
        <time>2014-03-21T15:59:56Z</time>
      </trkpt>
      <trkpt lat="45.49267" lon="4.6719">
        <ele>588.46</ele>
        <time>2014-03-21T16:00:01Z</time>
      </trkpt>
      <trkpt lat="45.49283" lon="4.67205">
        <ele>588.95</ele>
        <time>2014-03-21T16:00:18Z</time>
      </trkpt>
      <trkpt lat="45.49299" lon="4.67218">
        <ele>590.39</ele>
        <time>2014-03-21T16:00:34Z</time>
      </trkpt>
      <trkpt lat="45.49317" lon="4.67232">
        <ele>591.35</ele>
        <time>2014-03-21T16:00:52Z</time>
      </trkpt>
      <trkpt lat="45.49333" lon="4.67244">
        <ele>592.31</ele>
        <time>2014-03-21T16:01:07Z</time>
      </trkpt>
      <trkpt lat="45.49339" lon="4.6725">
        <ele>591.83</ele>
        <time>2014-03-21T16:01:19Z</time>
      </trkpt>
      <trkpt lat="45.49337" lon="4.67252">
        <ele>592.31</ele>
        <time>2014-03-21T16:01:43Z</time>
      </trkpt>
      <trkpt lat="45.4934" lon="4.67252">
        <ele>592.79</ele>
        <time>2014-03-21T16:02:04Z</time>
      </trkpt>
      <trkpt lat="45.49346" lon="4.67258">
        <ele>592.31</ele>
        <time>2014-03-21T16:02:24Z</time>
      </trkpt>
      <trkpt lat="45.49355" lon="4.67273">
        <ele>592.79</ele>
        <time>2014-03-21T16:02:38Z</time>
      </trkpt>
      <trkpt lat="45.49364" lon="4.67289">
        <ele>592.79</ele>
        <time>2014-03-21T16:02:52Z</time>
      </trkpt>
      <trkpt lat="45.49365" lon="4.67291">
        <ele>592.79</ele>
        <time>2014-03-21T16:02:54Z</time>
      </trkpt>
      <trkpt lat="45.49374" lon="4.67315">
        <ele>592.79</ele>
        <time>2014-03-21T16:03:11Z</time>
      </trkpt>
      <trkpt lat="45.49376" lon="4.67325">
        <ele>592.79</ele>
        <time>2014-03-21T16:03:18Z</time>
      </trkpt>
      <trkpt lat="45.49378" lon="4.67336">
        <ele>592.31</ele>
        <time>2014-03-21T16:03:25Z</time>
      </trkpt>
      <trkpt lat="45.49384" lon="4.67369">
        <ele>590.87</ele>
        <time>2014-03-21T16:03:40Z</time>
      </trkpt>
      <trkpt lat="45.49386" lon="4.67398">
        <ele>590.39</ele>
        <time>2014-03-21T16:03:53Z</time>
      </trkpt>
      <trkpt lat="45.49385" lon="4.67412">
        <ele>589.43</ele>
        <time>2014-03-21T16:04:06Z</time>
      </trkpt>
      <trkpt lat="45.49382" lon="4.67436">
        <ele>588.46</ele>
        <time>2014-03-21T16:04:22Z</time>
      </trkpt>
      <trkpt lat="45.49371" lon="4.67464">
        <ele>585.1</ele>
        <time>2014-03-21T16:04:39Z</time>
      </trkpt>
      <trkpt lat="45.49361" lon="4.67488">
        <ele>583.18</ele>
        <time>2014-03-21T16:04:53Z</time>
      </trkpt>
      <trkpt lat="45.49358" lon="4.67523">
        <ele>579.81</ele>
        <time>2014-03-21T16:05:10Z</time>
      </trkpt>
      <trkpt lat="45.49364" lon="4.67545">
        <ele>576.93</ele>
        <time>2014-03-21T16:05:22Z</time>
      </trkpt>
      <trkpt lat="45.49366" lon="4.67554">
        <ele>575.97</ele>
        <time>2014-03-21T16:05:28Z</time>
      </trkpt>
      <trkpt lat="45.49366" lon="4.67556">
        <ele>576.45</ele>
        <time>2014-03-21T16:05:29Z</time>
      </trkpt>
      <trkpt lat="45.49365" lon="4.67558">
        <ele>575.97</ele>
        <time>2014-03-21T16:05:30Z</time>
      </trkpt>
      <trkpt lat="45.49365" lon="4.6756">
        <ele>576.93</ele>
        <time>2014-03-21T16:05:31Z</time>
      </trkpt>
      <trkpt lat="45.49365" lon="4.67562">
        <ele>575.97</ele>
        <time>2014-03-21T16:05:32Z</time>
      </trkpt>
      <trkpt lat="45.49364" lon="4.67564">
        <ele>575.49</ele>
        <time>2014-03-21T16:05:33Z</time>
      </trkpt>
      <trkpt lat="45.49364" lon="4.67566">
        <ele>575.97</ele>
        <time>2014-03-21T16:05:34Z</time>
      </trkpt>
      <trkpt lat="45.49364" lon="4.67568">
        <ele>576.45</ele>
        <time>2014-03-21T16:05:35Z</time>
      </trkpt>
      <trkpt lat="45.49363" lon="4.6757">
        <ele>575.97</ele>
        <time>2014-03-21T16:05:36Z</time>
      </trkpt>
      <trkpt lat="45.49363" lon="4.67572">
        <ele>576.45</ele>
        <time>2014-03-21T16:05:37Z</time>
      </trkpt>
      <trkpt lat="45.49363" lon="4.67574">
        <ele>575.97</ele>
        <time>2014-03-21T16:05:38Z</time>
      </trkpt>
      <trkpt lat="45.49363" lon="4.67576">
        <ele>576.45</ele>
        <time>2014-03-21T16:05:39Z</time>
      </trkpt>
      <trkpt lat="45.49363" lon="4.67578">
        <ele>576.93</ele>
        <time>2014-03-21T16:05:40Z</time>
      </trkpt>
      <trkpt lat="45.49363" lon="4.67579">
        <ele>576.93</ele>
        <time>2014-03-21T16:05:41Z</time>
      </trkpt>
      <trkpt lat="45.49363" lon="4.67581">
        <ele>576.45</ele>
        <time>2014-03-21T16:05:42Z</time>
      </trkpt>
      <trkpt lat="45.49366" lon="4.67589">
        <ele>576.93</ele>
        <time>2014-03-21T16:05:57Z</time>
      </trkpt>
      <trkpt lat="45.49366" lon="4.67589">
        <ele>577.41</ele>
        <time>2014-03-21T16:05:58Z</time>
      </trkpt>
      <trkpt lat="45.49368" lon="4.67603">
        <ele>576.45</ele>
        <time>2014-03-21T16:06:16Z</time>
      </trkpt>
      <trkpt lat="45.4937" lon="4.67608">
        <ele>575.49</ele>
        <time>2014-03-21T16:06:21Z</time>
      </trkpt>
      <trkpt lat="45.49376" lon="4.67614">
        <ele>574.53</ele>
        <time>2014-03-21T16:06:29Z</time>
      </trkpt>
      <trkpt lat="45.49377" lon="4.67615">
        <ele>574.04</ele>
        <time>2014-03-21T16:06:30Z</time>
      </trkpt>
      <trkpt lat="45.49389" lon="4.6763">
        <ele>571.64</ele>
        <time>2014-03-21T16:06:44Z</time>
      </trkpt>
      <trkpt lat="45.49399" lon="4.6764">
        <ele>570.68</ele>
        <time>2014-03-21T16:06:53Z</time>
      </trkpt>
      <trkpt lat="45.49415" lon="4.67657">
        <ele>567.8</ele>
        <time>2014-03-21T16:07:08Z</time>
      </trkpt>
      <trkpt lat="45.49417" lon="4.67662">
        <ele>566.83</ele>
        <time>2014-03-21T16:07:12Z</time>
      </trkpt>
      <trkpt lat="45.49426" lon="4.67671">
        <ele>565.87</ele>
        <time>2014-03-21T16:07:25Z</time>
      </trkpt>
      <trkpt lat="45.49439" lon="4.6769">
        <ele>563.95</ele>
        <time>2014-03-21T16:07:44Z</time>
      </trkpt>
      <trkpt lat="45.49447" lon="4.67705">
        <ele>561.07</ele>
        <time>2014-03-21T16:08:02Z</time>
      </trkpt>
      <trkpt lat="45.49457" lon="4.6772">
        <ele>560.59</ele>
        <time>2014-03-21T16:08:17Z</time>
      </trkpt>
      <trkpt lat="45.49464" lon="4.67737">
        <ele>557.7</ele>
        <time>2014-03-21T16:08:32Z</time>
      </trkpt>
      <trkpt lat="45.49473" lon="4.67752">
        <ele>555.3</ele>
        <time>2014-03-21T16:08:47Z</time>
      </trkpt>
      <trkpt lat="45.49479" lon="4.67768">
        <ele>554.82</ele>
        <time>2014-03-21T16:09:02Z</time>
      </trkpt>
      <trkpt lat="45.49488" lon="4.67786">
        <ele>551.45</ele>
        <time>2014-03-21T16:09:15Z</time>
      </trkpt>
      <trkpt lat="45.49495" lon="4.67804">
        <ele>548.57</ele>
        <time>2014-03-21T16:09:29Z</time>
      </trkpt>
      <trkpt lat="45.49504" lon="4.67812">
        <ele>546.17</ele>
        <time>2014-03-21T16:09:43Z</time>
      </trkpt>
      <trkpt lat="45.49518" lon="4.67821">
        <ele>544.72</ele>
        <time>2014-03-21T16:09:59Z</time>
      </trkpt>
      <trkpt lat="45.49532" lon="4.67833">
        <ele>543.76</ele>
        <time>2014-03-21T16:10:15Z</time>
      </trkpt>
      <trkpt lat="45.49543" lon="4.67844">
        <ele>541.36</ele>
        <time>2014-03-21T16:10:32Z</time>
      </trkpt>
      <trkpt lat="45.49558" lon="4.67856">
        <ele>538.48</ele>
        <time>2014-03-21T16:10:46Z</time>
      </trkpt>
      <trkpt lat="45.4957" lon="4.6787">
        <ele>536.55</ele>
        <time>2014-03-21T16:11:02Z</time>
      </trkpt>
      <trkpt lat="45.49579" lon="4.67884">
        <ele>533.67</ele>
        <time>2014-03-21T16:11:16Z</time>
      </trkpt>
      <trkpt lat="45.4959" lon="4.67899">
        <ele>531.75</ele>
        <time>2014-03-21T16:11:32Z</time>
      </trkpt>
      <trkpt lat="45.49601" lon="4.67917">
        <ele>529.34</ele>
        <time>2014-03-21T16:11:49Z</time>
      </trkpt>
      <trkpt lat="45.49613" lon="4.67929">
        <ele>525.98</ele>
        <time>2014-03-21T16:12:03Z</time>
      </trkpt>
      <trkpt lat="45.49625" lon="4.67945">
        <ele>524.06</ele>
        <time>2014-03-21T16:12:20Z</time>
      </trkpt>
      <trkpt lat="45.49633" lon="4.67956">
        <ele>520.69</ele>
        <time>2014-03-21T16:12:30Z</time>
      </trkpt>
      <trkpt lat="45.49633" lon="4.67957">
        <ele>521.17</ele>
        <time>2014-03-21T16:12:31Z</time>
      </trkpt>
      <trkpt lat="45.49639" lon="4.67975">
        <ele>518.77</ele>
        <time>2014-03-21T16:12:45Z</time>
      </trkpt>
      <trkpt lat="45.49641" lon="4.67998">
        <ele>516.85</ele>
        <time>2014-03-21T16:13:01Z</time>
      </trkpt>
      <trkpt lat="45.49649" lon="4.68013">
        <ele>515.4</ele>
        <time>2014-03-21T16:13:15Z</time>
      </trkpt>
      <trkpt lat="45.4965" lon="4.68027">
        <ele>514.92</ele>
        <time>2014-03-21T16:13:26Z</time>
      </trkpt>
      <trkpt lat="45.49657" lon="4.68038">
        <ele>515.4</ele>
        <time>2014-03-21T16:13:36Z</time>
      </trkpt>
      <trkpt lat="45.49669" lon="4.68063">
        <ele>515.4</ele>
        <time>2014-03-21T16:13:54Z</time>
      </trkpt>
      <trkpt lat="45.49678" lon="4.6809">
        <ele>514.92</ele>
        <time>2014-03-21T16:14:12Z</time>
      </trkpt>
      <trkpt lat="45.49681" lon="4.68106">
        <ele>515.4</ele>
        <time>2014-03-21T16:14:27Z</time>
      </trkpt>
      <trkpt lat="45.49681" lon="4.68107">
        <ele>515.4</ele>
        <time>2014-03-21T16:14:48Z</time>
      </trkpt>
      <trkpt lat="45.49683" lon="4.68105">
        <ele>515.88</ele>
        <time>2014-03-21T16:15:11Z</time>
      </trkpt>
      <trkpt lat="45.49682" lon="4.68103">
        <ele>515.4</ele>
        <time>2014-03-21T16:15:30Z</time>
      </trkpt>
      <trkpt lat="45.49681" lon="4.68105">
        <ele>515.4</ele>
        <time>2014-03-21T16:16:01Z</time>
      </trkpt>
      <trkpt lat="45.4968" lon="4.68106">
        <ele>516.85</ele>
        <time>2014-03-21T16:16:21Z</time>
      </trkpt>
      <trkpt lat="45.49681" lon="4.68102">
        <ele>516.37</ele>
        <time>2014-03-21T16:16:51Z</time>
      </trkpt>
      <trkpt lat="45.49682" lon="4.68102">
        <ele>517.33</ele>
        <time>2014-03-21T16:17:16Z</time>
      </trkpt>
      <trkpt lat="45.49683" lon="4.68106">
        <ele>515.88</ele>
        <time>2014-03-21T16:17:45Z</time>
      </trkpt>
      <trkpt lat="45.49679" lon="4.68105">
        <ele>515.88</ele>
        <time>2014-03-21T16:18:23Z</time>
      </trkpt>
      <trkpt lat="45.49678" lon="4.68102">
        <ele>515.88</ele>
        <time>2014-03-21T16:18:53Z</time>
      </trkpt>
      <trkpt lat="45.4968" lon="4.68107">
        <ele>515.88</ele>
        <time>2014-03-21T16:19:25Z</time>
      </trkpt>
      <trkpt lat="45.4968" lon="4.68114">
        <ele>516.37</ele>
        <time>2014-03-21T16:19:41Z</time>
      </trkpt>
      <trkpt lat="45.4968" lon="4.68116">
        <ele>516.37</ele>
        <time>2014-03-21T16:19:42Z</time>
      </trkpt>
      <trkpt lat="45.49682" lon="4.68139">
        <ele>517.33</ele>
        <time>2014-03-21T16:19:58Z</time>
      </trkpt>
      <trkpt lat="45.49684" lon="4.68158">
        <ele>518.77</ele>
        <time>2014-03-21T16:20:11Z</time>
      </trkpt>
      <trkpt lat="45.49683" lon="4.68179">
        <ele>519.73</ele>
        <time>2014-03-21T16:20:26Z</time>
      </trkpt>
      <trkpt lat="45.49682" lon="4.68203">
        <ele>518.29</ele>
        <time>2014-03-21T16:20:44Z</time>
      </trkpt>
      <trkpt lat="45.49686" lon="4.68228">
        <ele>516.37</ele>
        <time>2014-03-21T16:21:00Z</time>
      </trkpt>
      <trkpt lat="45.49685" lon="4.6823">
        <ele>516.85</ele>
        <time>2014-03-21T16:21:04Z</time>
      </trkpt>
      <trkpt lat="45.4968" lon="4.68253">
        <ele>515.88</ele>
        <time>2014-03-21T16:21:21Z</time>
      </trkpt>
      <trkpt lat="45.49675" lon="4.68276">
        <ele>513.48</ele>
        <time>2014-03-21T16:21:38Z</time>
      </trkpt>
      <trkpt lat="45.4967" lon="4.68297">
        <ele>512.04</ele>
        <time>2014-03-21T16:21:53Z</time>
      </trkpt>
      <trkpt lat="45.49668" lon="4.68302">
        <ele>511.56</ele>
        <time>2014-03-21T16:22:05Z</time>
      </trkpt>
      <trkpt lat="45.4967" lon="4.68302">
        <ele>511.08</ele>
        <time>2014-03-21T16:22:27Z</time>
      </trkpt>
      <trkpt lat="45.49666" lon="4.68311">
        <ele>512.04</ele>
        <time>2014-03-21T16:22:52Z</time>
      </trkpt>
      <trkpt lat="45.49665" lon="4.68312">
        <ele>511.56</ele>
        <time>2014-03-21T16:22:53Z</time>
      </trkpt>
      <trkpt lat="45.49664" lon="4.68313">
        <ele>512.04</ele>
        <time>2014-03-21T16:22:54Z</time>
      </trkpt>
      <trkpt lat="45.49663" lon="4.68314">
        <ele>511.08</ele>
        <time>2014-03-21T16:22:55Z</time>
      </trkpt>
      <trkpt lat="45.49664" lon="4.68326">
        <ele>510.6</ele>
        <time>2014-03-21T16:23:01Z</time>
      </trkpt>
      <trkpt lat="45.4967" lon="4.68334">
        <ele>510.6</ele>
        <time>2014-03-21T16:23:09Z</time>
      </trkpt>
      <trkpt lat="45.49671" lon="4.68334">
        <ele>511.08</ele>
        <time>2014-03-21T16:23:10Z</time>
      </trkpt>
      <trkpt lat="45.49672" lon="4.68335">
        <ele>511.08</ele>
        <time>2014-03-21T16:23:11Z</time>
      </trkpt>
      <trkpt lat="45.49693" lon="4.6834">
        <ele>511.56</ele>
        <time>2014-03-21T16:23:26Z</time>
      </trkpt>
      <trkpt lat="45.49711" lon="4.68346">
        <ele>511.08</ele>
        <time>2014-03-21T16:23:40Z</time>
      </trkpt>
      <trkpt lat="45.49713" lon="4.68345">
        <ele>510.6</ele>
        <time>2014-03-21T16:23:44Z</time>
      </trkpt>
      <trkpt lat="45.49714" lon="4.68346">
        <ele>510.6</ele>
        <time>2014-03-21T16:23:45Z</time>
      </trkpt>
      <trkpt lat="45.49733" lon="4.68357">
        <ele>509.16</ele>
        <time>2014-03-21T16:23:59Z</time>
      </trkpt>
      <trkpt lat="45.49746" lon="4.68367">
        <ele>509.64</ele>
        <time>2014-03-21T16:24:11Z</time>
      </trkpt>
      <trkpt lat="45.49747" lon="4.68368">
        <ele>509.16</ele>
        <time>2014-03-21T16:24:12Z</time>
      </trkpt>
      <trkpt lat="45.49769" lon="4.68377">
        <ele>505.79</ele>
        <time>2014-03-21T16:24:30Z</time>
      </trkpt>
      <trkpt lat="45.49785" lon="4.68386">
        <ele>503.87</ele>
        <time>2014-03-21T16:24:45Z</time>
      </trkpt>
      <trkpt lat="45.49805" lon="4.68385">
        <ele>503.39</ele>
        <time>2014-03-21T16:24:59Z</time>
      </trkpt>
      <trkpt lat="45.49828" lon="4.6838">
        <ele>502.91</ele>
        <time>2014-03-21T16:25:17Z</time>
      </trkpt>
      <trkpt lat="45.49832" lon="4.6838">
        <ele>502.43</ele>
        <time>2014-03-21T16:25:20Z</time>
      </trkpt>
      <trkpt lat="45.49837" lon="4.68379">
        <ele>502.43</ele>
        <time>2014-03-21T16:25:24Z</time>
      </trkpt>
      <trkpt lat="45.49838" lon="4.68379">
        <ele>502.43</ele>
        <time>2014-03-21T16:25:25Z</time>
      </trkpt>
      <trkpt lat="45.49857" lon="4.68383">
        <ele>502.91</ele>
        <time>2014-03-21T16:25:41Z</time>
      </trkpt>
      <trkpt lat="45.49863" lon="4.68388">
        <ele>501.95</ele>
        <time>2014-03-21T16:25:47Z</time>
      </trkpt>
      <trkpt lat="45.49865" lon="4.6839">
        <ele>502.43</ele>
        <time>2014-03-21T16:25:49Z</time>
      </trkpt>
      <trkpt lat="45.49869" lon="4.68394">
        <ele>502.91</ele>
        <time>2014-03-21T16:25:53Z</time>
      </trkpt>
      <trkpt lat="45.4987" lon="4.68395">
        <ele>502.43</ele>
        <time>2014-03-21T16:25:54Z</time>
      </trkpt>
      <trkpt lat="45.49871" lon="4.68396">
        <ele>502.43</ele>
        <time>2014-03-21T16:25:55Z</time>
      </trkpt>
      <trkpt lat="45.49888" lon="4.68415">
        <ele>503.39</ele>
        <time>2014-03-21T16:26:11Z</time>
      </trkpt>
      <trkpt lat="45.49904" lon="4.6844">
        <ele>503.87</ele>
        <time>2014-03-21T16:26:29Z</time>
      </trkpt>
      <trkpt lat="45.49918" lon="4.68462">
        <ele>504.83</ele>
        <time>2014-03-21T16:26:46Z</time>
      </trkpt>
      <trkpt lat="45.49933" lon="4.68491">
        <ele>506.27</ele>
        <time>2014-03-21T16:27:06Z</time>
      </trkpt>
      <trkpt lat="45.49949" lon="4.68518">
        <ele>506.75</ele>
        <time>2014-03-21T16:27:25Z</time>
      </trkpt>
      <trkpt lat="45.49967" lon="4.68545">
        <ele>505.79</ele>
        <time>2014-03-21T16:27:45Z</time>
      </trkpt>
      <trkpt lat="45.49983" lon="4.68572">
        <ele>505.79</ele>
        <time>2014-03-21T16:28:04Z</time>
      </trkpt>
      <trkpt lat="45.4999" lon="4.68582">
        <ele>506.75</ele>
        <time>2014-03-21T16:28:13Z</time>
      </trkpt>
      <trkpt lat="45.50005" lon="4.686">
        <ele>507.23</ele>
        <time>2014-03-21T16:28:29Z</time>
      </trkpt>
      <trkpt lat="45.50005" lon="4.68601">
        <ele>507.23</ele>
        <time>2014-03-21T16:28:30Z</time>
      </trkpt>
      <trkpt lat="45.50009" lon="4.68607">
        <ele>506.75</ele>
        <time>2014-03-21T16:28:35Z</time>
      </trkpt>
      <trkpt lat="45.5001" lon="4.68609">
        <ele>506.75</ele>
        <time>2014-03-21T16:28:36Z</time>
      </trkpt>
      <trkpt lat="45.50011" lon="4.6861">
        <ele>507.23</ele>
        <time>2014-03-21T16:28:37Z</time>
      </trkpt>
      <trkpt lat="45.50012" lon="4.68611">
        <ele>507.23</ele>
        <time>2014-03-21T16:28:38Z</time>
      </trkpt>
      <trkpt lat="45.50013" lon="4.68612">
        <ele>507.23</ele>
        <time>2014-03-21T16:28:39Z</time>
      </trkpt>
      <trkpt lat="45.50014" lon="4.68613">
        <ele>506.75</ele>
        <time>2014-03-21T16:28:40Z</time>
      </trkpt>
      <trkpt lat="45.50029" lon="4.68633">
        <ele>506.75</ele>
        <time>2014-03-21T16:28:58Z</time>
      </trkpt>
      <trkpt lat="45.50046" lon="4.68651">
        <ele>506.27</ele>
        <time>2014-03-21T16:29:16Z</time>
      </trkpt>
      <trkpt lat="45.50062" lon="4.68665">
        <ele>505.31</ele>
        <time>2014-03-21T16:29:34Z</time>
      </trkpt>
      <trkpt lat="45.50079" lon="4.68678">
        <ele>504.35</ele>
        <time>2014-03-21T16:29:51Z</time>
      </trkpt>
      <trkpt lat="45.50095" lon="4.68693">
        <ele>503.87</ele>
        <time>2014-03-21T16:30:07Z</time>
      </trkpt>
      <trkpt lat="45.50113" lon="4.68704">
        <ele>503.87</ele>
        <time>2014-03-21T16:30:25Z</time>
      </trkpt>
      <trkpt lat="45.5013" lon="4.68715">
        <ele>502.43</ele>
        <time>2014-03-21T16:30:42Z</time>
      </trkpt>
      <trkpt lat="45.50148" lon="4.68725">
        <ele>500.02</ele>
        <time>2014-03-21T16:31:00Z</time>
      </trkpt>
      <trkpt lat="45.50164" lon="4.68737">
        <ele>498.58</ele>
        <time>2014-03-21T16:31:17Z</time>
      </trkpt>
      <trkpt lat="45.5018" lon="4.68752">
        <ele>497.62</ele>
        <time>2014-03-21T16:31:35Z</time>
      </trkpt>
      <trkpt lat="45.50181" lon="4.68753">
        <ele>497.14</ele>
        <time>2014-03-21T16:31:36Z</time>
      </trkpt>
      <trkpt lat="45.50194" lon="4.68771">
        <ele>498.1</ele>
        <time>2014-03-21T16:31:52Z</time>
      </trkpt>
      <trkpt lat="45.50196" lon="4.68772">
        <ele>496.18</ele>
        <time>2014-03-21T16:31:54Z</time>
      </trkpt>
      <trkpt lat="45.50217" lon="4.68788">
        <ele>494.74</ele>
        <time>2014-03-21T16:32:14Z</time>
      </trkpt>
      <trkpt lat="45.50228" lon="4.68807">
        <ele>492.33</ele>
        <time>2014-03-21T16:32:30Z</time>
      </trkpt>
      <trkpt lat="45.50236" lon="4.68811">
        <ele>490.89</ele>
        <time>2014-03-21T16:32:39Z</time>
      </trkpt>
      <trkpt lat="45.50237" lon="4.68811">
        <ele>493.77</ele>
        <time>2014-03-21T16:32:40Z</time>
      </trkpt>
      <trkpt lat="45.50238" lon="4.6881">
        <ele>491.85</ele>
        <time>2014-03-21T16:32:41Z</time>
      </trkpt>
      <trkpt lat="45.50238" lon="4.68808">
        <ele>491.37</ele>
        <time>2014-03-21T16:32:42Z</time>
      </trkpt>
      <trkpt lat="45.50239" lon="4.68806">
        <ele>490.89</ele>
        <time>2014-03-21T16:32:43Z</time>
      </trkpt>
      <trkpt lat="45.5024" lon="4.68804">
        <ele>491.37</ele>
        <time>2014-03-21T16:32:44Z</time>
      </trkpt>
      <trkpt lat="45.50239" lon="4.68777">
        <ele>489.93</ele>
        <time>2014-03-21T16:33:01Z</time>
      </trkpt>
      <trkpt lat="45.5024" lon="4.68754">
        <ele>488.97</ele>
        <time>2014-03-21T16:33:16Z</time>
      </trkpt>
      <trkpt lat="45.50242" lon="4.68751">
        <ele>487.53</ele>
        <time>2014-03-21T16:33:20Z</time>
      </trkpt>
      <trkpt lat="45.50249" lon="4.68751">
        <ele>486.56</ele>
        <time>2014-03-21T16:33:27Z</time>
      </trkpt>
      <trkpt lat="45.50253" lon="4.68756">
        <ele>486.56</ele>
        <time>2014-03-21T16:33:32Z</time>
      </trkpt>
      <trkpt lat="45.50257" lon="4.68759">
        <ele>487.05</ele>
        <time>2014-03-21T16:33:37Z</time>
      </trkpt>
      <trkpt lat="45.50263" lon="4.68762">
        <ele>484.16</ele>
        <time>2014-03-21T16:33:43Z</time>
      </trkpt>
      <trkpt lat="45.50281" lon="4.68766">
        <ele>482.24</ele>
        <time>2014-03-21T16:33:59Z</time>
      </trkpt>
      <trkpt lat="45.50291" lon="4.68773">
        <ele>475.99</ele>
        <time>2014-03-21T16:34:09Z</time>
      </trkpt>
      <trkpt lat="45.50292" lon="4.68775">
        <ele>483.68</ele>
        <time>2014-03-21T16:34:10Z</time>
      </trkpt>
      <trkpt lat="45.50294" lon="4.68777">
        <ele>480.8</ele>
        <time>2014-03-21T16:34:12Z</time>
      </trkpt>
      <trkpt lat="45.50295" lon="4.68779">
        <ele>480.32</ele>
        <time>2014-03-21T16:34:13Z</time>
      </trkpt>
      <trkpt lat="45.50307" lon="4.68794">
        <ele>479.35</ele>
        <time>2014-03-21T16:34:27Z</time>
      </trkpt>
      <trkpt lat="45.50321" lon="4.68817">
        <ele>477.43</ele>
        <time>2014-03-21T16:34:45Z</time>
      </trkpt>
      <trkpt lat="45.50335" lon="4.68835">
        <ele>476.95</ele>
        <time>2014-03-21T16:35:03Z</time>
      </trkpt>
      <trkpt lat="45.50336" lon="4.68836">
        <ele>476.47</ele>
        <time>2014-03-21T16:35:04Z</time>
      </trkpt>
      <trkpt lat="45.50342" lon="4.68844">
        <ele>475.99</ele>
        <time>2014-03-21T16:35:10Z</time>
      </trkpt>
      <trkpt lat="45.50355" lon="4.68851">
        <ele>474.55</ele>
        <time>2014-03-21T16:35:23Z</time>
      </trkpt>
      <trkpt lat="45.5038" lon="4.68845">
        <ele>472.63</ele>
        <time>2014-03-21T16:35:45Z</time>
      </trkpt>
      <trkpt lat="45.50399" lon="4.68842">
        <ele>470.7</ele>
        <time>2014-03-21T16:36:00Z</time>
      </trkpt>
      <trkpt lat="45.50412" lon="4.6885">
        <ele>470.22</ele>
        <time>2014-03-21T16:36:14Z</time>
      </trkpt>
      <trkpt lat="45.50413" lon="4.68856">
        <ele>470.7</ele>
        <time>2014-03-21T16:36:17Z</time>
      </trkpt>
      <trkpt lat="45.50413" lon="4.68858">
        <ele>471.66</ele>
        <time>2014-03-21T16:36:18Z</time>
      </trkpt>
      <trkpt lat="45.50416" lon="4.68863">
        <ele>471.66</ele>
        <time>2014-03-21T16:36:23Z</time>
      </trkpt>
      <trkpt lat="45.50417" lon="4.68862">
        <ele>471.66</ele>
        <time>2014-03-21T16:36:24Z</time>
      </trkpt>
      <trkpt lat="45.50436" lon="4.68858">
        <ele>470.22</ele>
        <time>2014-03-21T16:36:40Z</time>
      </trkpt>
      <trkpt lat="45.50437" lon="4.68857">
        <ele>470.22</ele>
        <time>2014-03-21T16:36:55Z</time>
      </trkpt>
      <trkpt lat="45.50442" lon="4.68859">
        <ele>469.26</ele>
        <time>2014-03-21T16:37:14Z</time>
      </trkpt>
      <trkpt lat="45.50446" lon="4.68858">
        <ele>468.3</ele>
        <time>2014-03-21T16:37:26Z</time>
      </trkpt>
    </trkseg>
  </trk>
</gpx>